Wetterdaten: Freitag, 30.11.2018
Datum Zeit Temp. Aussen Temp. o. S. +5cm Feuchte Auss Luftdruck Regen Sonnenschein Regendauer Solar Windben Empfang
30.11.2018 00:00 7,9 C 7,2 C 6,7 C 87 % 1008,1 hPa 0,0 l/m 0 min 0 min 0 W/m 16,1 km/h (3 Bft) 95,74 %
30.11.2018 00:02 7,9 C 7,2 C 6,7 C 87 % 1008,0 hPa 0,0 l/m 0 min 0 min 0 W/m 12,9 km/h (3 Bft) 95,35 %
30.11.2018 00:04 7,9 C 7,2 C 6,7 C 87 % 1008,1 hPa 0,0 l/m 0 min 0 min 0 W/m 12,9 km/h (3 Bft) 93,62 %
30.11.2018 00:08 7,9 C 7,2 C 6,7 C 87 % 1007,9 hPa 0,0 l/m 0 min 0 min 0 W/m 19,3 km/h (3 Bft) 94,68 %
30.11.2018 00:10 7,9 C 7,2 C 6,7 C 87 % 1007,9 hPa 0,0 l/m 0 min 0 min 0 W/m 16,1 km/h (3 Bft) 95,65 %
30.11.2018 00:12 8,0 C 7,2 C 6,7 C 87 % 1007,9 hPa 0,0 l/m 0 min 0 min 0 W/m 16,1 km/h (3 Bft) 95,74 %
30.11.2018 00:14 8,0 C 7,2 C 6,7 C 88 % 1007,9 hPa 0,0 l/m 0 min 0 min 0 W/m 12,9 km/h (3 Bft) 97,14 %
30.11.2018 00:16 8,0 C 7,2 C 6,7 C 88 % 1007,9 hPa 0,0 l/m 0 min 0 min 0 W/m 16,1 km/h (3 Bft) 93,62 %
30.11.2018 00:18 8,0 C 7,2 C 6,7 C 88 % 1007,9 hPa 0,0 l/m 0 min 0 min 0 W/m 12,9 km/h (3 Bft) 95,74 %
30.11.2018 00:20 8,0 C 7,8 C 6,7 C 88 % 1008,0 hPa 0,0 l/m 0 min 0 min 0 W/m 16,1 km/h (3 Bft) 89,36 %
30.11.2018 00:22 8,0 C 7,8 C 6,7 C 88 % 1008,0 hPa 0,0 l/m 0 min 0 min 0 W/m 16,1 km/h (3 Bft) 93,62 %
30.11.2018 00:24 8,0 C 7,8 C 6,7 C 88 % 1007,9 hPa 0,0 l/m 0 min 0 min 0 W/m 16,1 km/h (3 Bft) 93,62 %
30.11.2018 00:26 8,0 C 7,8 C 6,7 C 88 % 1007,9 hPa 0,0 l/m 0 min 0 min 0 W/m 16,1 km/h (3 Bft) 93,48 %
30.11.2018 00:28 8,1 C 7,8 C 6,7 C 88 % 1007,9 hPa 0,0 l/m 0 min 0 min 0 W/m 16,1 km/h (3 Bft) 93,62 %
30.11.2018 00:30 8,1 C 7,8 C 6,7 C 88 % 1007,9 hPa 0,0 l/m 0 min 0 min 0 W/m 12,9 km/h (3 Bft) 93,62 %
30.11.2018 00:32 8,1 C 7,8 C 6,7 C 88 % 1007,9 hPa 0,0 l/m 0 min 0 min 0 W/m 12,9 km/h (3 Bft) 93,62 %
30.11.2018 00:34 8,1 C 7,8 C 6,7 C 88 % 1007,9 hPa 0,0 l/m 0 min 0 min 0 W/m 12,9 km/h (3 Bft) 96,36 %
30.11.2018 00:36 8,1 C 7,8 C 6,7 C 88 % 1007,9 hPa 0,0 l/m 0 min 0 min 0 W/m 16,1 km/h (3 Bft) 91,49 %
30.11.2018 00:38 8,1 C 7,8 C 6,7 C 88 % 1007,9 hPa 0,0 l/m 0 min 0 min 0 W/m 12,9 km/h (3 Bft) 93,62 %
30.11.2018 00:40 8,1 C 7,8 C 6,7 C 88 % 1007,9 hPa 0,0 l/m 0 min 0 min 0 W/m 16,1 km/h (3 Bft) 93,62 %
30.11.2018 00:42 8,1 C 7,8 C 6,7 C 88 % 1007,9 hPa 0,0 l/m 0 min 0 min 0 W/m 16,1 km/h (3 Bft) 95,92 %
30.11.2018 00:44 8,1 C 7,8 C 6,7 C 88 % 1007,9 hPa 0,0 l/m 0 min 0 min 0 W/m 16,1 km/h (3 Bft) 95,74 %
30.11.2018 00:46 8,1 C 7,8 C 6,7 C 88 % 1007,9 hPa 0,0 l/m 0 min 0 min 0 W/m 16,1 km/h (3 Bft) 95,74 %
30.11.2018 00:48 8,2 C 7,8 C 6,7 C 88 % 1007,9 hPa 0,0 l/m 0 min 0 min 0 W/m 16,1 km/h (3 Bft) 97,87 %
30.11.2018 00:50 8,1 C 7,8 C 6,7 C 88 % 1007,9 hPa 0,0 l/m 0 min 0 min 0 W/m 12,9 km/h (3 Bft) 97,87 %
30.11.2018 00:52 8,2 C 7,8 C 6,7 C 88 % 1007,8 hPa 0,0 l/m 0 min 0 min 0 W/m 19,3 km/h (3 Bft) 95,74 %
30.11.2018 00:54 8,2 C 7,8 C 6,7 C 88 % 1007,8 hPa 0,0 l/m 0 min 0 min 0 W/m 16,1 km/h (3 Bft) 97,87 %
30.11.2018 00:56 8,1 C 7,2 C 6,7 C 88 % 1007,8 hPa 0,0 l/m 0 min 0 min 0 W/m 12,9 km/h (3 Bft) 95,74 %
30.11.2018 00:58 8,1 C 7,2 C 6,7 C 88 % 1007,7 hPa 0,0 l/m 0 min 0 min 0 W/m 16,1 km/h (3 Bft) 95,65 %
30.11.2018 01:00 8,1 C 7,2 C 6,7 C 88 % 1007,8 hPa 0,0 l/m 0 min 0 min 0 W/m 12,9 km/h (3 Bft) 97,87 %
30.11.2018 01:02 8,1 C 7,2 C 6,7 C 88 % 1007,8 hPa 0,0 l/m 0 min 0 min 0 W/m 19,3 km/h (3 Bft) 97,14 %
30.11.2018 01:04 8,1 C 7,2 C 6,7 C 88 % 1007,7 hPa 0,0 l/m 0 min 0 min 0 W/m 25,7 km/h (4 Bft) 97,87 %
30.11.2018 01:06 8,1 C 7,2 C 6,7 C 88 % 1007,6 hPa 0,0 l/m 0 min 0 min 0 W/m 19,3 km/h (3 Bft) 98,18 %
30.11.2018 01:08 8,1 C 7,8 C 6,7 C 88 % 1007,6 hPa 0,0 l/m 0 min 0 min 0 W/m 22,5 km/h (4 Bft) 96,00 %
30.11.2018 01:10 8,1 C 7,8 C 6,7 C 88 % 1007,7 hPa 0,0 l/m 0 min 0 min 0 W/m 12,9 km/h (3 Bft) 97,87 %
30.11.2018 01:12 8,1 C 7,8 C 6,7 C 88 % 1007,7 hPa 0,0 l/m 0 min 0 min 0 W/m 16,1 km/h (3 Bft) 97,87 %
30.11.2018 01:14 8,1 C 7,8 C 6,7 C 88 % 1007,7 hPa 0,0 l/m 0 min 0 min 0 W/m 16,1 km/h (3 Bft) 97,14 %
30.11.2018 01:16 8,1 C 7,8 C 6,7 C 88 % 1007,7 hPa 0,0 l/m 0 min 0 min 0 W/m 12,9 km/h (3 Bft) 95,74 %
30.11.2018 01:18 8,1 C 7,8 C 6,7 C 88 % 1007,7 hPa 0,0 l/m 0 min 0 min 0 W/m 19,3 km/h (3 Bft) 98,18 %
30.11.2018 01:20 8,1 C 7,8 C 6,7 C 88 % 1007,7 hPa 0,0 l/m 0 min 0 min 0 W/m 16,1 km/h (3 Bft) 97,87 %
30.11.2018 01:22 8,1 C 7,8 C 6,7 C 89 % 1007,7 hPa 0,0 l/m 0 min 0 min 0 W/m 12,9 km/h (3 Bft) 100,00 %
30.11.2018 01:24 8,1 C 7,8 C 6,7 C 89 % 1007,6 hPa 0,0 l/m 0 min 0 min 0 W/m 16,1 km/h (3 Bft) 100,00 %
30.11.2018 01:26 8,1 C 7,8 C 6,7 C 89 % 1007,6 hPa 0,0 l/m 0 min 0 min 0 W/m 16,1 km/h (3 Bft) 100,00 %
30.11.2018 01:28 8,1 C 7,8 C 6,7 C 89 % 1007,7 hPa 0,0 l/m 0 min 0 min 0 W/m 12,9 km/h (3 Bft) 100,00 %
30.11.2018 01:30 8,1 C 7,8 C 6,7 C 89 % 1007,6 hPa 0,0 l/m 0 min 0 min 0 W/m 19,3 km/h (3 Bft) 97,87 %
30.11.2018 01:32 8,1 C 7,8 C 6,7 C 89 % 1007,6 hPa 0,0 l/m 0 min 0 min 0 W/m 12,9 km/h (3 Bft) 97,87 %
30.11.2018 01:34 8,1 C 7,8 C 6,7 C 89 % 1007,5 hPa 0,0 l/m 0 min 0 min 0 W/m 9,7 km/h (2 Bft) 100,00 %
30.11.2018 01:36 8,1 C 7,8 C 6,7 C 89 % 1007,5 hPa 0,0 l/m 0 min 0 min 0 W/m 16,1 km/h (3 Bft) 100,00 %
30.11.2018 01:38 8,2 C 7,8 C 6,7 C 89 % 1007,5 hPa 0,0 l/m 0 min 0 min 0 W/m 19,3 km/h (3 Bft) 98,21 %
30.11.2018 01:40 8,2 C 7,8 C 7,2 C 89 % 1007,5 hPa 0,0 l/m 0 min 0 min 0 W/m 12,9 km/h (3 Bft) 100,00 %
30.11.2018 01:42 8,2 C 7,8 C 7,2 C 89 % 1007,6 hPa 0,0 l/m 0 min 0 min 0 W/m 25,7 km/h (4 Bft) 100,00 %
30.11.2018 01:44 8,2 C 7,8 C 7,2 C 89 % 1007,6 hPa 0,0 l/m 0 min 0 min 0 W/m 16,1 km/h (3 Bft) 100,00 %
30.11.2018 01:46 8,2 C 7,8 C 7,2 C 89 % 1007,7 hPa 0,0 l/m 0 min 0 min 0 W/m 16,1 km/h (3 Bft) 100,00 %
30.11.2018 01:48 8,2 C 7,8 C 7,2 C 89 % 1007,6 hPa 0,0 l/m 0 min 0 min 0 W/m 12,9 km/h (3 Bft) 97,87 %
30.11.2018 01:50 8,2 C 7,8 C 7,2 C 89 % 1007,5 hPa 0,0 l/m 0 min 0 min 0 W/m 16,1 km/h (3 Bft) 100,00 %
30.11.2018 01:52 8,2 C 7,8 C 7,2 C 89 % 1007,6 hPa 0,0 l/m 0 min 0 min 0 W/m 12,9 km/h (3 Bft) 100,00 %
30.11.2018 01:54 8,2 C 7,8 C 7,2 C 89 % 1007,6 hPa 0,0 l/m 0 min 0 min 0 W/m 12,9 km/h (3 Bft) 100,00 %
30.11.2018 01:56 8,3 C 7,8 C 7,2 C 89 % 1007,6 hPa 0,0 l/m 0 min 0 min 0 W/m 16,1 km/h (3 Bft) 97,92 %
30.11.2018 01:58 8,3 C 7,8 C 7,2 C 89 % 1007,7 hPa 0,0 l/m 0 min 0 min 0 W/m 12,9 km/h (3 Bft) 100,00 %
30.11.2018 02:00 8,3 C 7,8 C 7,2 C 89 % 1007,7 hPa 0,0 l/m 0 min 0 min 0 W/m 19,3 km/h (3 Bft) 100,00 %
30.11.2018 02:02 8,3 C 7,8 C 7,2 C 89 % 1007,7 hPa 0,0 l/m 0 min 0 min 0 W/m 16,1 km/h (3 Bft) 100,00 %
30.11.2018 02:04 8,3 C 7,8 C 7,2 C 89 % 1007,7 hPa 0,0 l/m 0 min 0 min 0 W/m 16,1 km/h (3 Bft) 100,00 %
30.11.2018 02:06 8,3 C 7,8 C 7,2 C 89 % 1007,7 hPa 0,0 l/m 0 min 0 min 0 W/m 12,9 km/h (3 Bft) 95,74 %
30.11.2018 02:08 8,3 C 7,8 C 7,2 C 89 % 1007,7 hPa 0,0 l/m 0 min 0 min 0 W/m 16,1 km/h (3 Bft) 100,00 %
30.11.2018 02:10 8,3 C 7,8 C 7,2 C 89 % 1007,7 hPa 0,0 l/m 0 min 0 min 0 W/m 16,1 km/h (3 Bft) 100,00 %
30.11.2018 02:12 8,4 C 7,8 C 7,2 C 89 % 1007,7 hPa 0,0 l/m 0 min 0 min 0 W/m 12,9 km/h (3 Bft) 100,00 %
30.11.2018 02:14 8,4 C 7,8 C 7,2 C 89 % 1007,7 hPa 0,0 l/m 0 min 0 min 0 W/m 16,1 km/h (3 Bft) 100,00 %
30.11.2018 02:16 8,4 C 7,8 C 7,2 C 89 % 1007,8 hPa 0,0 l/m 0 min 0 min 0 W/m 16,1 km/h (3 Bft) 100,00 %
30.11.2018 02:18 8,4 C 7,8 C 7,2 C 89 % 1007,7 hPa 0,0 l/m 0 min 0 min 0 W/m 22,5 km/h (4 Bft) 97,87 %
30.11.2018 02:20 8,4 C 7,8 C 7,2 C 89 % 1007,7 hPa 0,0 l/m 0 min 0 min 0 W/m 16,1 km/h (3 Bft) 97,87 %
30.11.2018 02:22 8,4 C 7,8 C 7,2 C 89 % 1007,8 hPa 0,0 l/m 0 min 0 min 0 W/m 12,9 km/h (3 Bft) 97,87 %
30.11.2018 02:24 8,4 C 7,8 C 7,2 C 89 % 1007,7 hPa 0,0 l/m 0 min 0 min 0 W/m 9,7 km/h (2 Bft) 97,87 %
30.11.2018 02:26 8,4 C 7,8 C 7,2 C 89 % 1007,8 hPa 0,0 l/m 0 min 0 min 0 W/m 12,9 km/h (3 Bft) 97,30 %
30.11.2018 02:28 8,4 C 7,8 C 7,2 C 89 % 1007,8 hPa 0,0 l/m 0 min 0 min 0 W/m 9,7 km/h (2 Bft) 97,87 %
30.11.2018 02:30 8,4 C 7,8 C 7,2 C 89 % 1007,8 hPa 0,0 l/m 0 min 0 min 0 W/m 12,9 km/h (3 Bft) 95,74 %
30.11.2018 02:32 8,4 C 7,8 C 7,2 C 89 % 1007,8 hPa 0,0 l/m 0 min 0 min 0 W/m 16,1 km/h (3 Bft) 97,87 %
30.11.2018 02:34 8,4 C 7,8 C 7,2 C 89 % 1007,8 hPa 0,0 l/m 0 min 0 min 0 W/m 12,9 km/h (3 Bft) 95,65 %
30.11.2018 02:36 8,4 C 7,8 C 7,2 C 89 % 1007,8 hPa 0,0 l/m 0 min 0 min 0 W/m 12,9 km/h (3 Bft) 97,87 %
30.11.2018 02:38 8,4 C 7,8 C 7,2 C 89 % 1007,9 hPa 0,0 l/m 0 min 0 min 0 W/m 9,7 km/h (2 Bft) 97,87 %
30.11.2018 02:40 8,4 C 7,8 C 7,2 C 89 % 1007,8 hPa 0,0 l/m 0 min 0 min 0 W/m 12,9 km/h (3 Bft) 97,87 %
30.11.2018 02:42 8,4 C 7,8 C 7,2 C 89 % 1007,9 hPa 0,0 l/m 0 min 0 min 0 W/m 12,9 km/h (3 Bft) 95,74 %
30.11.2018 02:44 8,4 C 7,8 C 7,2 C 89 % 1007,8 hPa 0,0 l/m 0 min 0 min 0 W/m 9,7 km/h (2 Bft) 96,30 %
30.11.2018 02:46 8,4 C 7,8 C 7,2 C 89 % 1007,8 hPa 0,0 l/m 0 min 0 min 0 W/m 12,9 km/h (3 Bft) 95,74 %
30.11.2018 02:48 8,4 C 7,8 C 7,2 C 89 % 1007,8 hPa 0,0 l/m 0 min 0 min 0 W/m 9,7 km/h (2 Bft) 97,87 %
30.11.2018 02:50 8,4 C 7,8 C 7,2 C 89 % 1007,8 hPa 0,0 l/m 0 min 0 min 0 W/m 9,7 km/h (2 Bft) 95,65 %
30.11.2018 02:52 8,4 C 7,8 C 7,2 C 89 % 1007,9 hPa 0,0 l/m 0 min 0 min 0 W/m 16,1 km/h (3 Bft) 95,74 %
30.11.2018 02:54 8,4 C 7,8 C 7,2 C 89 % 1007,9 hPa 0,0 l/m 0 min 0 min 0 W/m 9,7 km/h (2 Bft) 95,74 %
30.11.2018 02:56 8,4 C 7,8 C 7,2 C 89 % 1008,0 hPa 0,0 l/m 0 min 0 min 0 W/m 12,9 km/h (3 Bft) 97,92 %
30.11.2018 02:58 8,4 C 7,8 C 7,2 C 89 % 1008,0 hPa 0,0 l/m 0 min 0 min 0 W/m 9,7 km/h (2 Bft) 98,00 %
30.11.2018 03:00 8,4 C 7,8 C 7,2 C 89 % 1008,1 hPa 0,0 l/m 0 min 0 min 0 W/m 12,9 km/h (3 Bft) 93,62 %
30.11.2018 03:02 8,4 C 7,8 C 7,2 C 89 % 1008,0 hPa 0,0 l/m 0 min 0 min 0 W/m 9,7 km/h (2 Bft) 97,37 %
30.11.2018 03:04 8,4 C 7,8 C 7,2 C 89 % 1008,0 hPa 0,0 l/m 0 min 0 min 0 W/m 9,7 km/h (2 Bft) 97,62 %
30.11.2018 03:06 8,4 C 7,8 C 7,2 C 89 % 1008,0 hPa 0,0 l/m 0 min 0 min 0 W/m 22,5 km/h (4 Bft) 98,28 %
30.11.2018 03:08 8,4 C 7,8 C 7,2 C 89 % 1008,0 hPa 0,0 l/m 0 min 0 min 0 W/m 12,9 km/h (3 Bft) 94,29 %
30.11.2018 03:10 8,4 C 7,8 C 7,2 C 89 % 1008,0 hPa 0,0 l/m 0 min 0 min 0 W/m 9,7 km/h (2 Bft) 97,87 %
30.11.2018 03:12 8,4 C 7,8 C 7,2 C 89 % 1008,1 hPa 0,0 l/m 0 min 0 min 0 W/m 9,7 km/h (2 Bft) 97,87 %
30.11.2018 03:14 8,4 C 7,8 C 7,2 C 89 % 1008,0 hPa 0,0 l/m 0 min 0 min 0 W/m 9,7 km/h (2 Bft) 96,30 %
30.11.2018 03:16 8,4 C 7,8 C 7,2 C 89 % 1008,0 hPa 0,0 l/m 0 min 0 min 0 W/m 9,7 km/h (2 Bft) 97,87 %
30.11.2018 03:18 8,4 C 7,8 C 7,2 C 89 % 1008,0 hPa 0,0 l/m 0 min 0 min 0 W/m 22,5 km/h (4 Bft) 95,74 %
30.11.2018 03:20 8,4 C 7,8 C 7,2 C 89 % 1008,0 hPa 0,0 l/m 0 min 0 min 0 W/m 9,7 km/h (2 Bft) 98,00 %
30.11.2018 03:22 8,4 C 7,8 C 7,2 C 89 % 1008,0 hPa 0,0 l/m 0 min 0 min 0 W/m 16,1 km/h (3 Bft) 97,92 %
30.11.2018 03:24 8,4 C 7,8 C 7,2 C 89 % 1007,9 hPa 0,0 l/m 0 min 0 min 0 W/m 16,1 km/h (3 Bft) 95,74 %
30.11.2018 03:26 8,4 C 7,8 C 7,2 C 89 % 1007,8 hPa 0,0 l/m 0 min 0 min 0 W/m 16,1 km/h (3 Bft) 97,87 %
30.11.2018 03:28 8,4 C 7,8 C 7,2 C 89 % 1007,8 hPa 0,0 l/m 0 min 0 min 0 W/m 16,1 km/h (3 Bft) 100,00 %
30.11.2018 03:30 8,4 C 7,8 C 7,2 C 89 % 1007,8 hPa 0,0 l/m 0 min 0 min 0 W/m 9,7 km/h (2 Bft) 97,87 %
30.11.2018 03:32 8,4 C 7,8 C 6,7 C 89 % 1007,9 hPa 0,0 l/m 0 min 0 min 0 W/m 12,9 km/h (3 Bft) 94,44 %
30.11.2018 03:34 8,4 C 7,8 C 7,2 C 89 % 1007,9 hPa 0,0 l/m 0 min 0 min 0 W/m 12,9 km/h (3 Bft) 97,87 %
30.11.2018 03:36 8,4 C 7,8 C 7,2 C 89 % 1007,9 hPa 0,0 l/m 0 min 0 min 0 W/m 19,3 km/h (3 Bft) 97,87 %
30.11.2018 03:38 8,4 C 7,8 C 7,2 C 89 % 1007,8 hPa 0,0 l/m 0 min 0 min 0 W/m 19,3 km/h (3 Bft) 97,83 %
30.11.2018 03:40 8,3 C 7,8 C 7,2 C 89 % 1007,9 hPa 0,0 l/m 0 min 0 min 0 W/m 12,9 km/h (3 Bft) 97,87 %
30.11.2018 03:42 8,3 C 7,8 C 6,7 C 89 % 1007,9 hPa 0,0 l/m 0 min 0 min 0 W/m 16,1 km/h (3 Bft) 95,74 %
30.11.2018 03:44 8,3 C 7,8 C 6,7 C 89 % 1007,9 hPa 0,0 l/m 0 min 0 min 0 W/m 9,7 km/h (2 Bft) 96,00 %
30.11.2018 03:46 8,3 C 7,8 C 6,7 C 89 % 1007,8 hPa 0,0 l/m 0 min 0 min 0 W/m 9,7 km/h (2 Bft) 93,62 %
30.11.2018 03:48 8,3 C 7,8 C 6,7 C 89 % 1007,8 hPa 0,0 l/m 0 min 0 min 0 W/m 9,7 km/h (2 Bft) 95,65 %
30.11.2018 03:50 8,3 C 7,8 C 6,7 C 89 % 1007,8 hPa 0,0 l/m 0 min 0 min 0 W/m 12,9 km/h (3 Bft) 93,62 %
30.11.2018 03:52 8,3 C 7,8 C 6,7 C 89 % 1007,8 hPa 0,0 l/m 0 min 0 min 0 W/m 12,9 km/h (3 Bft) 95,74 %
30.11.2018 03:54 8,3 C 7,8 C 6,7 C 89 % 1007,9 hPa 0,0 l/m 0 min 0 min 0 W/m 12,9 km/h (3 Bft) 95,74 %
30.11.2018 03:56 8,3 C 7,8 C 7,2 C 89 % 1007,9 hPa 0,0 l/m 0 min 0 min 0 W/m 16,1 km/h (3 Bft) 91,49 %
30.11.2018 03:58 8,3 C 7,8 C 7,2 C 89 % 1007,8 hPa 0,0 l/m 0 min 0 min 0 W/m 12,9 km/h (3 Bft) 95,83 %
30.11.2018 04:00 8,3 C 7,8 C 7,2 C 89 % 1007,8 hPa 0,0 l/m 0 min 0 min 0 W/m 12,9 km/h (3 Bft) 95,74 %
30.11.2018 04:02 8,3 C 7,8 C 7,2 C 89 % 1007,7 hPa 0,0 l/m 0 min 0 min 0 W/m 16,1 km/h (3 Bft) 94,74 %
30.11.2018 04:04 8,3 C 7,8 C 6,7 C 89 % 1007,7 hPa 0,0 l/m 0 min 0 min 0 W/m 12,9 km/h (3 Bft) 97,83 %
30.11.2018 04:06 8,3 C 7,8 C 7,2 C 89 % 1007,7 hPa 0,0 l/m 0 min 0 min 0 W/m 16,1 km/h (3 Bft) 97,87 %
30.11.2018 04:08 8,3 C 7,8 C 7,2 C 89 % 1007,7 hPa 0,0 l/m 0 min 0 min 0 W/m 12,9 km/h (3 Bft) 100,00 %
30.11.2018 04:10 8,3 C 7,8 C 7,2 C 89 % 1007,7 hPa 0,0 l/m 0 min 0 min 0 W/m 12,9 km/h (3 Bft) 95,74 %
30.11.2018 04:12 8,3 C 7,8 C 7,2 C 89 % 1007,7 hPa 0,0 l/m 0 min 0 min 0 W/m 9,7 km/h (2 Bft) 96,30 %
30.11.2018 04:14 8,3 C 7,8 C 7,2 C 89 % 1007,7 hPa 0,0 l/m 0 min 0 min 0 W/m 12,9 km/h (3 Bft) 98,00 %
30.11.2018 04:16 8,3 C 7,8 C 7,2 C 89 % 1007,6 hPa 0,0 l/m 0 min 0 min 0 W/m 12,9 km/h (3 Bft) 97,87 %
30.11.2018 04:18 8,3 C 7,8 C 6,7 C 89 % 1007,6 hPa 0,0 l/m 0 min 0 min 0 W/m 9,7 km/h (2 Bft) 97,92 %
30.11.2018 04:20 8,3 C 7,8 C 6,7 C 89 % 1007,6 hPa 0,0 l/m 0 min 0 min 0 W/m 12,9 km/h (3 Bft) 97,87 %
30.11.2018 04:22 8,3 C 7,8 C 6,7 C 89 % 1007,7 hPa 0,0 l/m 0 min 0 min 0 W/m 12,9 km/h (3 Bft) 97,87 %
30.11.2018 04:24 8,3 C 7,8 C 6,7 C 89 % 1007,7 hPa 0,0 l/m 0 min 0 min 0 W/m 16,1 km/h (3 Bft) 97,87 %
30.11.2018 04:26 8,3 C 7,8 C 6,7 C 90 % 1007,8 hPa 0,0 l/m 0 min 0 min 0 W/m 12,9 km/h (3 Bft) 97,87 %
30.11.2018 04:28 8,3 C 7,8 C 6,7 C 90 % 1007,7 hPa 0,0 l/m 0 min 0 min 0 W/m 12,9 km/h (3 Bft) 97,83 %
30.11.2018 04:30 8,3 C 7,8 C 6,7 C 90 % 1007,6 hPa 0,0 l/m 0 min 0 min 0 W/m 12,9 km/h (3 Bft) 97,87 %
30.11.2018 04:32 8,3 C 7,8 C 6,7 C 90 % 1007,6 hPa 0,0 l/m 0 min 0 min 0 W/m 12,9 km/h (3 Bft) 97,87 %
30.11.2018 04:34 8,2 C 7,8 C 6,7 C 90 % 1007,7 hPa 0,0 l/m 0 min 0 min 0 W/m 16,1 km/h (3 Bft) 97,87 %
30.11.2018 04:36 8,2 C 7,8 C 6,7 C 90 % 1007,6 hPa 0,0 l/m 0 min 0 min 0 W/m 12,9 km/h (3 Bft) 97,87 %
30.11.2018 04:38 8,2 C 7,8 C 6,7 C 90 % 1007,7 hPa 0,0 l/m 0 min 0 min 0 W/m 16,1 km/h (3 Bft) 94,29 %
30.11.2018 04:40 8,2 C 7,8 C 6,7 C 90 % 1007,7 hPa 0,0 l/m 0 min 0 min 0 W/m 16,1 km/h (3 Bft) 100,00 %
30.11.2018 04:42 8,2 C 7,8 C 6,7 C 90 % 1007,7 hPa 0,0 l/m 0 min 0 min 0 W/m 12,9 km/h (3 Bft) 100,00 %
30.11.2018 04:44 8,2 C 7,8 C 6,7 C 90 % 1007,6 hPa 0,0 l/m 0 min 0 min 0 W/m 19,3 km/h (3 Bft) 97,83 %
30.11.2018 04:46 8,2 C 7,8 C 6,7 C 90 % 1007,6 hPa 0,0 l/m 0 min 0 min 0 W/m 12,9 km/h (3 Bft) 100,00 %
30.11.2018 04:48 8,2 C 7,8 C 6,7 C 90 % 1007,6 hPa 0,0 l/m 0 min 0 min 0 W/m 12,9 km/h (3 Bft) 97,87 %
30.11.2018 04:50 8,2 C 7,8 C 6,7 C 90 % 1007,7 hPa 0,0 l/m 0 min 0 min 0 W/m 12,9 km/h (3 Bft) 97,87 %
30.11.2018 04:52 8,2 C 7,8 C 6,7 C 90 % 1007,7 hPa 0,0 l/m 0 min 0 min 0 W/m 16,1 km/h (3 Bft) 100,00 %
30.11.2018 04:54 8,2 C 7,8 C 6,7 C 90 % 1007,7 hPa 0,0 l/m 0 min 0 min 0 W/m 12,9 km/h (3 Bft) 95,65 %
30.11.2018 04:56 8,2 C 7,8 C 6,7 C 90 % 1007,7 hPa 0,0 l/m 0 min 0 min 0 W/m 12,9 km/h (3 Bft) 100,00 %
30.11.2018 04:58 8,2 C 7,8 C 6,7 C 90 % 1007,7 hPa 0,0 l/m 0 min 0 min 0 W/m 9,7 km/h (2 Bft) 98,21 %
30.11.2018 05:00 8,2 C 7,8 C 6,7 C 90 % 1007,7 hPa 0,0 l/m 0 min 0 min 0 W/m 12,9 km/h (3 Bft) 97,87 %
30.11.2018 05:02 8,2 C 7,8 C 6,7 C 90 % 1007,6 hPa 0,0 l/m 0 min 0 min 0 W/m 12,9 km/h (3 Bft) 93,88 %
30.11.2018 05:04 8,2 C 7,8 C 7,2 C 90 % 1007,6 hPa 0,0 l/m 0 min 0 min 0 W/m 9,7 km/h (2 Bft) 97,87 %
30.11.2018 05:06 8,2 C 7,8 C 6,7 C 90 % 1007,7 hPa 0,0 l/m 0 min 0 min 0 W/m 12,9 km/h (3 Bft) 95,74 %
30.11.2018 05:08 8,2 C 7,8 C 7,2 C 90 % 1007,7 hPa 0,0 l/m 0 min 0 min 0 W/m 9,7 km/h (2 Bft) 97,87 %
30.11.2018 05:10 8,2 C 7,8 C 6,7 C 90 % 1007,6 hPa 0,0 l/m 0 min 0 min 0 W/m 9,7 km/h (2 Bft) 97,14 %
30.11.2018 05:12 8,2 C 7,8 C 7,2 C 90 % 1007,6 hPa 0,0 l/m 0 min 0 min 0 W/m 9,7 km/h (2 Bft) 97,87 %
30.11.2018 05:14 8,2 C 7,8 C 7,2 C 90 % 1007,7 hPa 0,0 l/m 0 min 0 min 0 W/m 12,9 km/h (3 Bft) 98,11 %
30.11.2018 05:16 8,3 C 7,8 C 7,2 C 90 % 1007,7 hPa 0,0 l/m 0 min 0 min 0 W/m 12,9 km/h (3 Bft) 97,87 %
30.11.2018 05:18 8,3 C 7,8 C 7,2 C 90 % 1007,7 hPa 0,0 l/m 0 min 0 min 0 W/m 9,7 km/h (2 Bft) 95,74 %
30.11.2018 05:20 8,3 C 7,8 C 7,2 C 90 % 1007,6 hPa 0,0 l/m 0 min 0 min 0 W/m 12,9 km/h (3 Bft) 97,87 %
30.11.2018 05:22 8,3 C 8,3 C 7,2 C 91 % 1007,7 hPa 0,0 l/m 0 min 0 min 0 W/m 19,3 km/h (3 Bft) 95,92 %
30.11.2018 05:24 8,3 C 8,3 C 7,2 C 91 % 1007,7 hPa 0,0 l/m 0 min 0 min 0 W/m 9,7 km/h (2 Bft) 97,87 %
30.11.2018 05:26 8,3 C 8,3 C 7,2 C 91 % 1007,7 hPa 0,0 l/m 0 min 0 min 0 W/m 12,9 km/h (3 Bft) 95,74 %
30.11.2018 05:28 8,4 C 8,3 C 7,2 C 91 % 1007,7 hPa 0,0 l/m 0 min 0 min 0 W/m 12,9 km/h (3 Bft) 97,87 %
30.11.2018 05:30 8,4 C 8,3 C 7,2 C 91 % 1007,7 hPa 0,0 l/m 0 min 0 min 0 W/m 9,7 km/h (2 Bft) 97,87 %
30.11.2018 05:32 8,4 C 8,3 C 7,2 C 91 % 1007,7 hPa 0,0 l/m 0 min 0 min 0 W/m 9,7 km/h (2 Bft) 95,74 %
30.11.2018 05:34 8,4 C 8,3 C 7,2 C 91 % 1007,6 hPa 0,0 l/m 0 min 0 min 0 W/m 12,9 km/h (3 Bft) 97,83 %
30.11.2018 05:36 8,4 C 8,3 C 7,2 C 91 % 1007,6 hPa 0,0 l/m 0 min 0 min 0 W/m 9,7 km/h (2 Bft) 95,74 %
30.11.2018 05:38 8,5 C 8,3 C 7,2 C 91 % 1007,6 hPa 0,0 l/m 0 min 0 min 0 W/m 9,7 km/h (2 Bft) 95,74 %
30.11.2018 05:40 8,5 C 8,3 C 7,2 C 91 % 1007,6 hPa 0,0 l/m 0 min 0 min 0 W/m 12,9 km/h (3 Bft) 100,00 %
30.11.2018 05:42 8,5 C 8,3 C 7,2 C 91 % 1007,7 hPa 0,0 l/m 0 min 0 min 0 W/m 9,7 km/h (2 Bft) 100,00 %
30.11.2018 05:44 8,5 C 8,3 C 7,2 C 91 % 1007,6 hPa 0,0 l/m 0 min 0 min 0 W/m 6,4 km/h (2 Bft) 100,00 %
30.11.2018 05:46 8,5 C 8,3 C 7,2 C 91 % 1007,6 hPa 0,0 l/m 0 min 0 min 0 W/m 16,1 km/h (3 Bft) 97,14 %
30.11.2018 05:48 8,6 C 8,3 C 7,2 C 91 % 1007,6 hPa 0,0 l/m 0 min 0 min 0 W/m 9,7 km/h (2 Bft) 98,11 %
30.11.2018 05:50 8,6 C 8,3 C 7,2 C 91 % 1007,7 hPa 0,0 l/m 0 min 0 min 0 W/m 12,9 km/h (3 Bft) 100,00 %
30.11.2018 05:52 8,6 C 8,3 C 7,2 C 91 % 1007,6 hPa 0,0 l/m 0 min 0 min 0 W/m 9,7 km/h (2 Bft) 100,00 %
30.11.2018 05:54 8,6 C 7,8 C 7,2 C 91 % 1007,5 hPa 0,0 l/m 0 min 0 min 0 W/m 6,4 km/h (2 Bft) 97,87 %
30.11.2018 05:56 8,6 C 8,3 C 7,2 C 91 % 1007,6 hPa 0,0 l/m 0 min 0 min 0 W/m 12,9 km/h (3 Bft) 97,87 %
30.11.2018 05:58 8,6 C 8,3 C 7,2 C 91 % 1007,5 hPa 0,0 l/m 0 min 0 min 0 W/m 9,7 km/h (2 Bft) 97,96 %
30.11.2018 06:00 8,6 C 8,3 C 7,2 C 91 % 1007,6 hPa 0,0 l/m 0 min 0 min 0 W/m 12,9 km/h (3 Bft) 97,87 %
30.11.2018 06:02 8,6 C 8,3 C 7,2 C 91 % 1007,7 hPa 0,0 l/m 0 min 0 min 0 W/m 9,7 km/h (2 Bft) 97,87 %
30.11.2018 06:04 8,6 C 8,3 C 7,2 C 91 % 1007,7 hPa 0,0 l/m 0 min 0 min 0 W/m 9,7 km/h (2 Bft) 100,00 %
30.11.2018 06:08 8,7 C 8,3 C 7,2 C 91 % 1007,7 hPa 0,0 l/m 0 min 0 min 0 W/m 12,9 km/h (3 Bft) 97,92 %
30.11.2018 06:10 8,7 C 8,3 C 7,2 C 91 % 1007,8 hPa 0,0 l/m 0 min 0 min 0 W/m 9,7 km/h (2 Bft) 100,00 %
30.11.2018 06:12 8,7 C 8,3 C 7,2 C 91 % 1007,8 hPa 0,0 l/m 0 min 0 min 0 W/m 6,4 km/h (2 Bft) 100,00 %
30.11.2018 06:14 8,7 C 8,3 C 7,2 C 91 % 1007,8 hPa 0,0 l/m 0 min 0 min 0 W/m 12,9 km/h (3 Bft) 100,00 %
30.11.2018 06:16 8,7 C 8,3 C 7,2 C 91 % 1007,9 hPa 0,0 l/m 0 min 0 min 0 W/m 9,7 km/h (2 Bft) 95,65 %
30.11.2018 06:18 8,7 C 8,3 C 7,2 C 91 % 1007,8 hPa 0,0 l/m 0 min 0 min 0 W/m 9,7 km/h (2 Bft) 95,74 %
30.11.2018 06:20 8,7 C 8,3 C 7,8 C 91 % 1007,8 hPa 0,0 l/m 0 min 0 min 0 W/m 12,9 km/h (3 Bft) 97,87 %
30.11.2018 06:22 8,7 C 8,3 C 7,8 C 91 % 1007,8 hPa 0,0 l/m 0 min 0 min 0 W/m 9,7 km/h (2 Bft) 98,11 %
30.11.2018 06:24 8,8 C 8,3 C 7,8 C 91 % 1007,9 hPa 0,0 l/m 0 min 0 min 0 W/m 9,7 km/h (2 Bft) 97,87 %
30.11.2018 06:26 8,8 C 8,3 C 7,2 C 91 % 1007,9 hPa 0,0 l/m 0 min 0 min 0 W/m 9,7 km/h (2 Bft) 97,87 %
30.11.2018 06:28 8,8 C 8,3 C 7,8 C 91 % 1007,8 hPa 0,0 l/m 0 min 0 min 0 W/m 9,7 km/h (2 Bft) 95,74 %
30.11.2018 06:30 8,8 C 8,3 C 7,8 C 91 % 1007,8 hPa 0,0 l/m 0 min 0 min 0 W/m 9,7 km/h (2 Bft) 98,00 %
30.11.2018 06:32 8,8 C 8,3 C 7,8 C 91 % 1007,9 hPa 0,0 l/m 0 min 0 min 0 W/m 12,9 km/h (3 Bft) 93,48 %
30.11.2018 06:34 8,8 C 8,3 C 7,8 C 91 % 1007,8 hPa 0,0 l/m 0 min 0 min 0 W/m 9,7 km/h (2 Bft) 97,87 %
30.11.2018 06:36 8,8 C 8,3 C 7,2 C 91 % 1007,8 hPa 0,0 l/m 0 min 0 min 0 W/m 9,7 km/h (2 Bft) 97,87 %
30.11.2018 06:38 8,9 C 8,3 C 7,2 C 91 % 1007,8 hPa 0,0 l/m 0 min 0 min 0 W/m 9,7 km/h (2 Bft) 97,87 %
30.11.2018 06:40 8,9 C 8,3 C 7,2 C 91 % 1007,8 hPa 0,0 l/m 0 min 0 min 0 W/m 12,9 km/h (3 Bft) 89,36 %
30.11.2018 06:42 8,9 C 8,3 C 7,8 C 91 % 1007,8 hPa 0,0 l/m 0 min 0 min 0 W/m 12,9 km/h (3 Bft) 97,96 %
30.11.2018 06:44 8,9 C 8,3 C 7,8 C 91 % 1007,8 hPa 0,0 l/m 0 min 0 min 0 W/m 6,4 km/h (2 Bft) 97,87 %
30.11.2018 06:46 8,9 C 8,3 C 7,8 C 91 % 1007,9 hPa 0,0 l/m 0 min 0 min 0 W/m 12,9 km/h (3 Bft) 97,14 %
30.11.2018 06:48 8,9 C 8,3 C 7,8 C 91 % 1007,9 hPa 0,0 l/m 0 min 0 min 0 W/m 9,7 km/h (2 Bft) 97,87 %
30.11.2018 06:50 8,9 C 8,3 C 7,8 C 91 % 1007,8 hPa 0,0 l/m 0 min 0 min 0 W/m 6,4 km/h (2 Bft) 93,48 %
30.11.2018 06:52 8,9 C 8,3 C 7,8 C 91 % 1007,9 hPa 0,0 l/m 0 min 0 min 0 W/m 9,7 km/h (2 Bft) 97,87 %
30.11.2018 06:54 8,9 C 8,3 C 7,2 C 91 % 1007,9 hPa 0,0 l/m 0 min 0 min 0 W/m 6,4 km/h (2 Bft) 97,87 %
30.11.2018 06:56 8,9 C 8,3 C 7,2 C 91 % 1007,9 hPa 0,0 l/m 0 min 0 min 0 W/m 6,4 km/h (2 Bft) 97,87 %
30.11.2018 06:58 8,9 C 8,3 C 7,2 C 91 % 1007,9 hPa 0,0 l/m 0 min 0 min 0 W/m 6,4 km/h (2 Bft) 96,23 %
30.11.2018 07:00 8,9 C 8,3 C 7,2 C 91 % 1007,9 hPa 0,0 l/m 0 min 0 min 0 W/m 6,4 km/h (2 Bft) 95,24 %
30.11.2018 07:02 8,9 C 8,3 C 7,2 C 91 % 1007,8 hPa 0,0 l/m 0 min 0 min 0 W/m 6,4 km/h (2 Bft) 93,62 %
30.11.2018 07:04 8,9 C 8,3 C 7,2 C 91 % 1007,8 hPa 0,0 l/m 0 min 0 min 0 W/m 6,4 km/h (2 Bft) 95,65 %
30.11.2018 07:06 8,9 C 8,3 C 7,2 C 91 % 1007,9 hPa 0,0 l/m 0 min 0 min 0 W/m 6,4 km/h (2 Bft) 96,23 %
30.11.2018 07:08 8,9 C 8,3 C 7,2 C 91 % 1008,0 hPa 0,0 l/m 0 min 0 min 0 W/m 6,4 km/h (2 Bft) 97,96 %
30.11.2018 07:10 8,9 C 8,3 C 7,2 C 91 % 1008,0 hPa 0,0 l/m 0 min 0 min 0 W/m 9,7 km/h (2 Bft) 97,87 %
30.11.2018 07:12 8,9 C 8,3 C 7,2 C 91 % 1008,1 hPa 0,0 l/m 0 min 0 min 0 W/m 6,4 km/h (2 Bft) 97,87 %
30.11.2018 07:14 8,9 C 8,3 C 7,2 C 91 % 1008,1 hPa 0,0 l/m 0 min 0 min 0 W/m 9,7 km/h (2 Bft) 97,87 %
30.11.2018 07:16 8,9 C 8,3 C 7,2 C 91 % 1008,1 hPa 0,0 l/m 0 min 0 min 0 W/m 6,4 km/h (2 Bft) 97,87 %
30.11.2018 07:18 8,9 C 8,3 C 7,2 C 91 % 1008,0 hPa 0,0 l/m 0 min 0 min 0 W/m 6,4 km/h (2 Bft) 95,65 %
30.11.2018 07:20 8,9 C 8,3 C 7,2 C 91 % 1008,0 hPa 0,0 l/m 0 min 0 min 0 W/m 9,7 km/h (2 Bft) 95,74 %
30.11.2018 07:22 8,9 C 8,3 C 7,2 C 91 % 1008,1 hPa 0,0 l/m 0 min 0 min 0 W/m 9,7 km/h (2 Bft) 95,74 %
30.11.2018 07:24 8,9 C 8,3 C 7,2 C 91 % 1008,1 hPa 0,0 l/m 0 min 0 min 0 W/m 9,7 km/h (2 Bft) 97,87 %
30.11.2018 07:26 8,8 C 8,3 C 7,2 C 91 % 1008,1 hPa 0,0 l/m 0 min 0 min 0 W/m 9,7 km/h (2 Bft) 97,87 %
30.11.2018 07:28 8,8 C 8,3 C 7,2 C 91 % 1008,1 hPa 0,0 l/m 0 min 0 min 0 W/m 6,4 km/h (2 Bft) 97,87 %
30.11.2018 07:30 8,8 C 8,3 C 7,2 C 91 % 1008,0 hPa 0,0 l/m 0 min 0 min 0 W/m 9,7 km/h (2 Bft) 97,83 %
30.11.2018 07:32 8,8 C 8,3 C 7,2 C 91 % 1008,1 hPa 0,0 l/m 0 min 0 min 0 W/m 6,4 km/h (2 Bft) 95,74 %
30.11.2018 07:34 8,8 C 8,3 C 7,2 C 91 % 1008,0 hPa 0,0 l/m 0 min 0 min 0 W/m 9,7 km/h (2 Bft) 93,62 %
30.11.2018 07:36 8,8 C 8,3 C 7,2 C 91 % 1008,0 hPa 0,0 l/m 0 min 0 min 0 W/m 9,7 km/h (2 Bft) 95,74 %
30.11.2018 07:38 8,8 C 8,3 C 7,2 C 91 % 1008,0 hPa 0,0 l/m 0 min 0 min 0 W/m 9,7 km/h (2 Bft) 94,00 %
30.11.2018 07:40 8,8 C 8,3 C 7,2 C 91 % 1008,1 hPa 0,0 l/m 0 min 0 min 0 W/m 9,7 km/h (2 Bft) 95,74 %
30.11.2018 07:42 8,8 C 8,3 C 7,2 C 91 % 1008,1 hPa 0,0 l/m 0 min 0 min 0 W/m 9,7 km/h (2 Bft) 95,65 %
30.11.2018 07:44 8,8 C 7,8 C 7,2 C 91 % 1008,1 hPa 0,0 l/m 0 min 0 min 0 W/m 6,4 km/h (2 Bft) 93,62 %
30.11.2018 07:46 8,8 C 7,8 C 7,2 C 91 % 1008,1 hPa 0,0 l/m 0 min 0 min 0 W/m 6,4 km/h (2 Bft) 95,74 %
30.11.2018 07:48 8,7 C 7,8 C 7,2 C 91 % 1008,1 hPa 0,0 l/m 0 min 0 min 0 W/m 6,4 km/h (2 Bft) 93,62 %
30.11.2018 07:50 8,7 C 7,8 C 6,7 C 91 % 1008,1 hPa 0,0 l/m 0 min 0 min 0 W/m 6,4 km/h (2 Bft) 94,29 %
30.11.2018 07:52 8,7 C 7,8 C 6,7 C 91 % 1008,2 hPa 0,0 l/m 0 min 0 min 0 W/m 6,4 km/h (2 Bft) 95,74 %
30.11.2018 07:54 8,7 C 7,8 C 6,7 C 91 % 1008,2 hPa 0,0 l/m 0 min 0 min 0 W/m 6,4 km/h (2 Bft) 95,74 %
30.11.2018 07:56 8,7 C 7,2 C 6,7 C 91 % 1008,2 hPa 0,0 l/m 0 min 0 min 0 W/m 0,0 km/h (0 Bft) 95,74 %
30.11.2018 07:58 8,7 C 7,2 C 6,7 C 91 % 1008,2 hPa 0,0 l/m 0 min 0 min 0 W/m 0,0 km/h (0 Bft) 95,74 %
30.11.2018 08:00 8,7 C 7,2 C 6,7 C 91 % 1008,3 hPa 0,0 l/m 0 min 0 min 0 W/m 0,0 km/h (0 Bft) 95,74 %
30.11.2018 08:02 8,6 C 7,2 C 6,7 C 91 % 1008,2 hPa 0,0 l/m 0 min 0 min 0 W/m 0,0 km/h (0 Bft) 97,83 %
30.11.2018 08:04 8,6 C 7,2 C 6,1 C 91 % 1008,3 hPa 0,0 l/m 0 min 0 min 0 W/m 0,0 km/h (0 Bft) 97,87 %
30.11.2018 08:06 8,6 C 6,7 C 6,1 C 91 % 1008,4 hPa 0,0 l/m 0 min 0 min 0 W/m 0,0 km/h (0 Bft) 97,87 %
30.11.2018 08:08 8,5 C 6,7 C 6,1 C 91 % 1008,4 hPa 0,0 l/m 0 min 0 min 0 W/m 0,0 km/h (0 Bft) 95,74 %
30.11.2018 08:10 8,5 C 6,7 C 6,1 C 91 % 1008,5 hPa 0,0 l/m 0 min 0 min 0 W/m 0,0 km/h (0 Bft) 97,87 %
30.11.2018 08:12 8,5 C 6,7 C 6,1 C 91 % 1008,5 hPa 0,0 l/m 0 min 0 min 0 W/m 0,0 km/h (0 Bft) 97,83 %
30.11.2018 08:14 8,4 C 6,7 C 6,1 C 90 % 1008,5 hPa 0,0 l/m 0 min 0 min 0 W/m 0,0 km/h (0 Bft) 97,87 %
30.11.2018 08:16 8,4 C 6,7 C 6,1 C 90 % 1008,5 hPa 0,0 l/m 0 min 0 min 0 W/m 0,0 km/h (0 Bft) 97,87 %
30.11.2018 08:18 8,3 C 6,7 C 6,1 C 90 % 1008,5 hPa 0,0 l/m 0 min 0 min 0 W/m 0,0 km/h (0 Bft) 94,55 %
30.11.2018 08:20 8,3 C 6,7 C 6,1 C 90 % 1008,5 hPa 0,0 l/m 0 min 0 min 0 W/m 6,4 km/h (2 Bft) 100,00 %
30.11.2018 08:22 8,2 C 6,7 C 6,1 C 90 % 1008,6 hPa 0,0 l/m 0 min 0 min 0 W/m 6,4 km/h (2 Bft) 97,22 %
30.11.2018 08:24 8,2 C 6,7 C 6,1 C 90 % 1008,6 hPa 0,0 l/m 0 min 0 min 0 W/m 12,9 km/h (3 Bft) 97,83 %
30.11.2018 08:26 8,2 C 6,7 C 6,1 C 90 % 1008,6 hPa 0,0 l/m 0 min 0 min 5 W/m 6,4 km/h (2 Bft) 97,87 %
30.11.2018 08:28 8,1 C 6,7 C 6,1 C 90 % 1008,7 hPa 0,0 l/m 0 min 0 min 6 W/m 6,4 km/h (2 Bft) 100,00 %
30.11.2018 08:30 8,1 C 6,7 C 6,1 C 90 % 1008,6 hPa 0,0 l/m 0 min 0 min 7 W/m 6,4 km/h (2 Bft) 100,00 %
30.11.2018 08:32 8,0 C 6,7 C 6,1 C 91 % 1008,7 hPa 0,0 l/m 0 min 0 min 9 W/m 6,4 km/h (2 Bft) 97,87 %
30.11.2018 08:34 7,9 C 6,7 C 6,1 C 90 % 1008,7 hPa 0,0 l/m 0 min 0 min 10 W/m 6,4 km/h (2 Bft) 100,00 %
30.11.2018 08:36 7,9 C 6,7 C 6,1 C 91 % 1008,7 hPa 0,0 l/m 0 min 0 min 11 W/m 9,7 km/h (2 Bft) 100,00 %
30.11.2018 08:38 7,9 C 6,7 C 6,1 C 91 % 1008,7 hPa 0,0 l/m 0 min 0 min 12 W/m 6,4 km/h (2 Bft) 100,00 %
30.11.2018 08:40 7,9 C 6,7 C 6,1 C 91 % 1008,7 hPa 0,0 l/m 0 min 0 min 13 W/m 9,7 km/h (2 Bft) 100,00 %
30.11.2018 08:42 7,8 C 6,7 C 6,1 C 91 % 1008,7 hPa 0,0 l/m 0 min 0 min 15 W/m 6,4 km/h (2 Bft) 100,00 %
30.11.2018 08:44 7,8 C 6,7 C 6,1 C 91 % 1008,8 hPa 0,0 l/m 0 min 0 min 17 W/m 6,4 km/h (2 Bft) 100,00 %
30.11.2018 08:46 7,8 C 6,7 C 6,1 C 91 % 1008,8 hPa 0,0 l/m 0 min 0 min 18 W/m 6,4 km/h (2 Bft) 100,00 %
30.11.2018 08:48 7,7 C 6,7 C 6,1 C 91 % 1008,7 hPa 0,0 l/m 0 min 0 min 20 W/m 9,7 km/h (2 Bft) 100,00 %
30.11.2018 08:50 7,7 C 6,7 C 6,1 C 91 % 1008,8 hPa 0,0 l/m 0 min 0 min 22 W/m 12,9 km/h (3 Bft) 100,00 %
30.11.2018 08:52 7,7 C 6,7 C 6,1 C 91 % 1008,8 hPa 0,0 l/m 0 min 0 min 25 W/m 6,4 km/h (2 Bft) 100,00 %
30.11.2018 08:54 7,6 C 6,7 C 6,1 C 91 % 1008,7 hPa 0,0 l/m 0 min 0 min 26 W/m 12,9 km/h (3 Bft) 97,87 %
30.11.2018 08:56 7,6 C 7,2 C 6,1 C 92 % 1008,8 hPa 0,0 l/m 0 min 0 min 28 W/m 12,9 km/h (3 Bft) 97,87 %
30.11.2018 08:58 7,6 C 7,2 C 6,1 C 92 % 1008,8 hPa 0,0 l/m 0 min 0 min 30 W/m 12,9 km/h (3 Bft) 100,00 %
30.11.2018 09:00 7,6 C 7,2 C 6,1 C 92 % 1008,8 hPa 0,0 l/m 0 min 0 min 30 W/m 16,1 km/h (3 Bft) 100,00 %
30.11.2018 09:02 7,6 C 7,2 C 6,1 C 92 % 1008,9 hPa 0,0 l/m 0 min 0 min 32 W/m 12,9 km/h (3 Bft) 95,74 %
30.11.2018 09:04 7,6 C 7,2 C 6,1 C 92 % 1008,9 hPa 0,0 l/m 0 min 0 min 32 W/m 9,7 km/h (2 Bft) 100,00 %
30.11.2018 09:06 7,6 C 7,2 C 6,1 C 92 % 1008,8 hPa 0,0 l/m 0 min 0 min 32 W/m 9,7 km/h (2 Bft) 100,00 %
30.11.2018 09:08 7,6 C 7,2 C 6,1 C 92 % 1008,8 hPa 0,0 l/m 0 min 0 min 31 W/m 12,9 km/h (3 Bft) 97,22 %
30.11.2018 09:10 7,6 C 7,2 C 6,1 C 92 % 1008,8 hPa 0,0 l/m 0 min 0 min 32 W/m 12,9 km/h (3 Bft) 97,83 %
30.11.2018 09:12 7,6 C 7,2 C 6,1 C 92 % 1008,9 hPa 0,0 l/m 0 min 0 min 32 W/m 12,9 km/h (3 Bft) 95,74 %
30.11.2018 09:14 7,6 C 7,2 C 6,1 C 93 % 1008,9 hPa 0,0 l/m 0 min 0 min 32 W/m 9,7 km/h (2 Bft) 98,15 %
30.11.2018 09:16 7,6 C 7,2 C 6,1 C 93 % 1008,9 hPa 0,0 l/m 0 min 0 min 33 W/m 6,4 km/h (2 Bft) 97,50 %
30.11.2018 09:18 7,6 C 7,2 C 6,1 C 93 % 1008,9 hPa 0,0 l/m 0 min 0 min 36 W/m 9,7 km/h (2 Bft) 97,87 %
30.11.2018 09:20 7,6 C 7,2 C 6,7 C 93 % 1008,9 hPa 0,0 l/m 0 min 0 min 42 W/m 9,7 km/h (2 Bft) 97,87 %
30.11.2018 09:22 7,6 C 7,2 C 6,7 C 93 % 1008,8 hPa 0,0 l/m 0 min 0 min 44 W/m 16,1 km/h (3 Bft) 97,83 %
30.11.2018 09:24 7,6 C 7,8 C 6,7 C 93 % 1008,8 hPa 0,0 l/m 0 min 0 min 47 W/m 16,1 km/h (3 Bft) 100,00 %
30.11.2018 09:26 7,6 C 7,8 C 6,7 C 93 % 1008,8 hPa 0,0 l/m 0 min 0 min 51 W/m 9,7 km/h (2 Bft) 100,00 %
30.11.2018 09:28 7,6 C 7,8 C 6,7 C 93 % 1008,9 hPa 0,0 l/m 0 min 0 min 54 W/m 6,4 km/h (2 Bft) 97,87 %
30.11.2018 09:30 7,6 C 7,8 C 6,7 C 93 % 1008,9 hPa 0,0 l/m 0 min 0 min 61 W/m 6,4 km/h (2 Bft) 97,87 %
30.11.2018 09:32 7,6 C 7,8 C 6,7 C 93 % 1008,9 hPa 0,0 l/m 0 min 0 min 55 W/m 9,7 km/h (2 Bft) 97,83 %
30.11.2018 09:34 7,6 C 7,8 C 6,7 C 93 % 1008,9 hPa 0,0 l/m 0 min 0 min 46 W/m 6,4 km/h (2 Bft) 96,36 %
30.11.2018 09:36 7,7 C 7,8 C 6,7 C 94 % 1008,9 hPa 0,0 l/m 0 min 0 min 58 W/m 9,7 km/h (2 Bft) 98,00 %
30.11.2018 09:38 7,7 C 8,3 C 6,7 C 94 % 1008,9 hPa 0,0 l/m 0 min 0 min 63 W/m 9,7 km/h (2 Bft) 97,83 %
30.11.2018 09:40 7,7 C 8,3 C 6,7 C 94 % 1008,9 hPa 0,0 l/m 0 min 0 min 71 W/m 9,7 km/h (2 Bft) 97,22 %
30.11.2018 09:42 7,7 C 8,3 C 6,7 C 94 % 1008,9 hPa 0,0 l/m 0 min 0 min 74 W/m 9,7 km/h (2 Bft) 97,83 %
30.11.2018 09:44 7,7 C 8,3 C 7,2 C 94 % 1008,9 hPa 0,0 l/m 2 min 0 min 92 W/m 12,9 km/h (3 Bft) 97,87 %
30.11.2018 09:46 7,8 C 8,3 C 7,2 C 94 % 1008,9 hPa 0,0 l/m 0 min 0 min 80 W/m 9,7 km/h (2 Bft) 97,87 %
30.11.2018 09:48 7,8 C 8,9 C 7,2 C 94 % 1008,9 hPa 0,0 l/m 0 min 0 min 75 W/m 6,4 km/h (2 Bft) 97,87 %
30.11.2018 09:50 7,8 C 8,9 C 7,2 C 94 % 1008,9 hPa 0,0 l/m 0 min 0 min 72 W/m 9,7 km/h (2 Bft) 95,74 %
30.11.2018 09:52 7,9 C 8,9 C 7,2 C 94 % 1009,0 hPa 0,0 l/m 0 min 0 min 73 W/m 19,3 km/h (3 Bft) 97,83 %
30.11.2018 09:54 7,9 C 8,9 C 7,2 C 94 % 1008,9 hPa 0,0 l/m 0 min 0 min 77 W/m 6,4 km/h (2 Bft) 97,96 %
30.11.2018 09:56 7,9 C 8,9 C 7,2 C 94 % 1008,9 hPa 0,0 l/m 0 min 0 min 86 W/m 9,7 km/h (2 Bft) 97,83 %
30.11.2018 09:58 8,0 C 9,4 C 7,2 C 94 % 1008,9 hPa 0,0 l/m 2 min 0 min 104 W/m 9,7 km/h (2 Bft) 97,87 %
30.11.2018 10:00 8,1 C 10,0 C 7,2 C 94 % 1008,9 hPa 0,0 l/m 2 min 0 min 123 W/m 9,7 km/h (2 Bft) 97,87 %
30.11.2018 10:02 8,1 C 10,0 C 7,8 C 94 % 1008,9 hPa 0,0 l/m 2 min 0 min 107 W/m 9,7 km/h (2 Bft) 93,62 %
30.11.2018 10:04 8,2 C 9,4 C 7,8 C 94 % 1008,9 hPa 0,0 l/m 2 min 0 min 100 W/m 9,7 km/h (2 Bft) 93,62 %
30.11.2018 10:06 8,2 C 9,4 C 7,8 C 94 % 1008,9 hPa 0,0 l/m 0 min 0 min 83 W/m 9,7 km/h (2 Bft) 98,28 %
30.11.2018 10:08 8,3 C 10,0 C 7,8 C 94 % 1009,0 hPa 0,0 l/m 2 min 0 min 139 W/m 9,7 km/h (2 Bft) 100,00 %
30.11.2018 10:10 8,3 C 11,1 C 7,8 C 94 % 1008,9 hPa 0,0 l/m 2 min 0 min 177 W/m 12,9 km/h (3 Bft) 100,00 %
30.11.2018 10:12 8,4 C 11,1 C 7,8 C 94 % 1008,9 hPa 0,0 l/m 2 min 0 min 171 W/m 12,9 km/h (3 Bft) 100,00 %
30.11.2018 10:14 8,5 C 11,1 C 7,8 C 94 % 1008,8 hPa 0,0 l/m 2 min 0 min 145 W/m 12,9 km/h (3 Bft) 97,87 %
30.11.2018 10:16 8,6 C 11,1 C 7,8 C 94 % 1008,9 hPa 0,0 l/m 2 min 0 min 142 W/m 9,7 km/h (2 Bft) 95,74 %
30.11.2018 10:18 8,6 C 11,7 C 7,8 C 94 % 1008,9 hPa 0,0 l/m 2 min 0 min 163 W/m 9,7 km/h (2 Bft) 91,49 %
30.11.2018 10:20 8,7 C 11,7 C 8,3 C 94 % 1008,8 hPa 0,0 l/m 2 min 0 min 145 W/m 12,9 km/h (3 Bft) 97,83 %
30.11.2018 10:22 8,8 C 11,7 C 8,3 C 94 % 1008,9 hPa 0,0 l/m 2 min 0 min 176 W/m 12,9 km/h (3 Bft) 93,62 %
30.11.2018 10:24 8,9 C 11,7 C 8,3 C 94 % 1008,9 hPa 0,0 l/m 2 min 0 min 147 W/m 9,7 km/h (2 Bft) 95,74 %
30.11.2018 10:26 8,9 C 11,1 C 8,3 C 94 % 1008,9 hPa 0,0 l/m 2 min 0 min 137 W/m 16,1 km/h (3 Bft) 95,74 %
30.11.2018 10:28 9,1 C 11,1 C 8,3 C 94 % 1009,0 hPa 0,0 l/m 2 min 0 min 135 W/m 12,9 km/h (3 Bft) 96,23 %
30.11.2018 10:30 9,1 C 11,1 C 8,3 C 94 % 1009,1 hPa 0,0 l/m 2 min 0 min 132 W/m 12,9 km/h (3 Bft) 95,74 %
30.11.2018 10:32 9,2 C 11,1 C 8,3 C 93 % 1009,0 hPa 0,0 l/m 2 min 0 min 128 W/m 12,9 km/h (3 Bft) 92,00 %
30.11.2018 10:34 9,3 C 11,1 C 8,9 C 93 % 1009,1 hPa 0,0 l/m 2 min 0 min 135 W/m 9,7 km/h (2 Bft) 97,30 %
30.11.2018 10:36 9,3 C 11,1 C 8,9 C 93 % 1009,1 hPa 0,0 l/m 2 min 0 min 120 W/m 9,7 km/h (2 Bft) 94,92 %
30.11.2018 10:38 9,4 C 11,1 C 8,9 C 93 % 1009,0 hPa 0,0 l/m 0 min 0 min 116 W/m 12,9 km/h (3 Bft) 94,29 %
30.11.2018 10:40 9,4 C 11,1 C 8,9 C 92 % 1009,1 hPa 0,0 l/m 2 min 0 min 137 W/m 16,1 km/h (3 Bft) 95,74 %
30.11.2018 10:42 9,6 C 11,7 C 8,9 C 92 % 1009,1 hPa 0,0 l/m 2 min 0 min 166 W/m 9,7 km/h (2 Bft) 93,62 %
30.11.2018 10:44 9,6 C 11,7 C 8,9 C 92 % 1009,2 hPa 0,0 l/m 2 min 0 min 149 W/m 12,9 km/h (3 Bft) 95,65 %
30.11.2018 10:46 9,7 C 11,7 C 8,9 C 92 % 1009,2 hPa 0,0 l/m 2 min 0 min 138 W/m 9,7 km/h (2 Bft) 93,62 %
30.11.2018 10:48 9,7 C 11,7 C 8,9 C 92 % 1009,2 hPa 0,0 l/m 2 min 0 min 154 W/m 9,7 km/h (2 Bft) 93,62 %
30.11.2018 10:50 9,8 C 11,7 C 9,4 C 91 % 1009,1 hPa 0,0 l/m 2 min 0 min 157 W/m 9,7 km/h (2 Bft) 95,74 %
30.11.2018 10:52 9,9 C 12,2 C 9,4 C 91 % 1009,1 hPa 0,0 l/m 2 min 0 min 164 W/m 16,1 km/h (3 Bft) 97,87 %
30.11.2018 10:54 9,9 C 12,2 C 9,4 C 91 % 1009,1 hPa 0,0 l/m 2 min 0 min 169 W/m 16,1 km/h (3 Bft) 96,30 %
30.11.2018 10:56 10,0 C 11,7 C 9,4 C 91 % 1009,1 hPa 0,0 l/m 2 min 0 min 160 W/m 12,9 km/h (3 Bft) 97,87 %
30.11.2018 10:58 10,1 C 11,7 C 9,4 C 90 % 1009,0 hPa 0,0 l/m 2 min 0 min 134 W/m 12,9 km/h (3 Bft) 97,37 %
30.11.2018 11:00 10,2 C 12,2 C 9,4 C 90 % 1009,0 hPa 0,0 l/m 2 min 0 min 146 W/m 16,1 km/h (3 Bft) 97,92 %
30.11.2018 11:02 10,2 C 12,2 C 9,4 C 90 % 1009,0 hPa 0,0 l/m 2 min 0 min 162 W/m 19,3 km/h (3 Bft) 97,87 %
30.11.2018 11:04 10,3 C 11,7 C 9,4 C 90 % 1009,0 hPa 0,0 l/m 2 min 0 min 156 W/m 22,5 km/h (4 Bft) 95,74 %
30.11.2018 11:06 10,3 C 11,7 C 10,0 C 89 % 1009,1 hPa 0,0 l/m 2 min 0 min 158 W/m 16,1 km/h (3 Bft) 100,00 %
30.11.2018 11:08 10,4 C 11,7 C 10,0 C 89 % 1009,0 hPa 0,0 l/m 2 min 0 min 152 W/m 16,1 km/h (3 Bft) 100,00 %
30.11.2018 11:10 10,4 C 11,7 C 10,0 C 89 % 1009,0 hPa 0,0 l/m 0 min 0 min 121 W/m 12,9 km/h (3 Bft) 100,00 %
30.11.2018 11:12 10,5 C 11,7 C 10,0 C 89 % 1008,9 hPa 0,0 l/m 0 min 0 min 122 W/m 12,9 km/h (3 Bft) 97,87 %
30.11.2018 11:14 10,6 C 11,7 C 10,0 C 88 % 1008,9 hPa 0,0 l/m 0 min 0 min 123 W/m 16,1 km/h (3 Bft) 100,00 %
30.11.2018 11:16 10,6 C 11,1 C 10,0 C 88 % 1008,9 hPa 0,0 l/m 0 min 0 min 128 W/m 16,1 km/h (3 Bft) 97,87 %
30.11.2018 11:18 10,7 C 11,1 C 10,0 C 88 % 1009,0 hPa 0,0 l/m 0 min 0 min 117 W/m 16,1 km/h (3 Bft) 100,00 %
30.11.2018 11:20 10,7 C 11,1 C 10,0 C 88 % 1009,0 hPa 0,0 l/m 0 min 0 min 94 W/m 9,7 km/h (2 Bft) 100,00 %
30.11.2018 11:22 10,7 C 11,1 C 10,0 C 88 % 1009,0 hPa 0,0 l/m 0 min 0 min 94 W/m 12,9 km/h (3 Bft) 100,00 %
30.11.2018 11:24 10,8 C 11,1 C 10,0 C 87 % 1009,0 hPa 0,0 l/m 0 min 0 min 96 W/m 9,7 km/h (2 Bft) 100,00 %
30.11.2018 11:26 10,8 C 11,1 C 10,0 C 87 % 1008,9 hPa 0,0 l/m 0 min 0 min 96 W/m 19,3 km/h (3 Bft) 100,00 %
30.11.2018 11:28 10,8 C 11,1 C 10,0 C 87 % 1008,9 hPa 0,0 l/m 0 min 0 min 97 W/m 22,5 km/h (4 Bft) 100,00 %
30.11.2018 11:30 10,8 C 11,1 C 10,0 C 87 % 1008,9 hPa 0,0 l/m 0 min 0 min 96 W/m 12,9 km/h (3 Bft) 100,00 %
30.11.2018 11:32 10,9 C 11,1 C 10,0 C 87 % 1009,0 hPa 0,0 l/m 0 min 0 min 104 W/m 19,3 km/h (3 Bft) 100,00 %
30.11.2018 11:34 10,9 C 11,1 C 10,0 C 87 % 1009,0 hPa 0,0 l/m 0 min 0 min 108 W/m 16,1 km/h (3 Bft) 100,00 %
30.11.2018 11:36 10,9 C 11,1 C 10,0 C 86 % 1008,9 hPa 0,0 l/m 0 min 0 min 109 W/m 22,5 km/h (4 Bft) 100,00 %
30.11.2018 11:38 11,0 C 11,7 C 10,6 C 86 % 1008,9 hPa 0,0 l/m 0 min 0 min 112 W/m 16,1 km/h (3 Bft) 100,00 %
30.11.2018 11:40 11,0 C 11,7 C 10,6 C 86 % 1008,9 hPa 0,0 l/m 0 min 0 min 103 W/m 9,7 km/h (2 Bft) 100,00 %
30.11.2018 11:42 11,1 C 11,7 C 10,6 C 86 % 1008,9 hPa 0,0 l/m 0 min 0 min 104 W/m 22,5 km/h (4 Bft) 100,00 %
30.11.2018 11:44 11,1 C 11,7 C 10,6 C 86 % 1008,8 hPa 0,0 l/m 0 min 0 min 104 W/m 16,1 km/h (3 Bft) 100,00 %
30.11.2018 11:46 11,1 C 11,7 C 10,6 C 86 % 1008,8 hPa 0,0 l/m 0 min 0 min 109 W/m 16,1 km/h (3 Bft) 100,00 %
30.11.2018 11:48 11,2 C 11,7 C 10,6 C 85 % 1008,8 hPa 0,0 l/m 0 min 0 min 115 W/m 22,5 km/h (4 Bft) 100,00 %
30.11.2018 11:50 11,2 C 11,7 C 10,6 C 85 % 1008,8 hPa 0,0 l/m 0 min 0 min 116 W/m 19,3 km/h (3 Bft) 100,00 %
30.11.2018 11:52 11,2 C 11,7 C 10,6 C 85 % 1008,8 hPa 0,0 l/m 0 min 0 min 126 W/m 22,5 km/h (4 Bft) 100,00 %
30.11.2018 11:54 11,2 C 11,7 C 10,6 C 85 % 1008,9 hPa 0,0 l/m 0 min 0 min 138 W/m 19,3 km/h (3 Bft) 100,00 %
30.11.2018 11:56 11,3 C 12,2 C 10,6 C 84 % 1008,8 hPa 0,0 l/m 0 min 0 min 140 W/m 19,3 km/h (3 Bft) 100,00 %
30.11.2018 11:58 11,3 C 12,2 C 10,6 C 85 % 1008,8 hPa 0,0 l/m 2 min 0 min 149 W/m 12,9 km/h (3 Bft) 100,00 %
30.11.2018 12:00 11,3 C 12,2 C 10,6 C 84 % 1008,8 hPa 0,0 l/m 2 min 0 min 169 W/m 22,5 km/h (4 Bft) 100,00 %
30.11.2018 12:02 11,3 C 12,2 C 10,6 C 84 % 1008,7 hPa 0,0 l/m 2 min 0 min 164 W/m 16,1 km/h (3 Bft) 98,18 %
30.11.2018 12:04 11,4 C 12,2 C 10,6 C 84 % 1008,8 hPa 0,0 l/m 2 min 0 min 149 W/m 19,3 km/h (3 Bft) 100,00 %
30.11.2018 12:08 11,4 C 12,2 C 10,6 C 84 % 1008,8 hPa 0,0 l/m 0 min 0 min 138 W/m 19,3 km/h (3 Bft) 98,94 %
30.11.2018 12:10 11,5 C 11,7 C 10,6 C 84 % 1008,7 hPa 0,0 l/m 0 min 0 min 111 W/m 29,0 km/h (5 Bft) 100,00 %
30.11.2018 12:12 11,5 C 11,7 C 10,6 C 83 % 1008,7 hPa 0,0 l/m 0 min 0 min 93 W/m 19,3 km/h (3 Bft) 100,00 %
30.11.2018 12:14 11,6 C 11,7 C 10,6 C 83 % 1008,8 hPa 0,0 l/m 0 min 0 min 93 W/m 9,7 km/h (2 Bft) 100,00 %
30.11.2018 12:16 11,6 C 11,7 C 10,6 C 83 % 1008,9 hPa 0,0 l/m 0 min 0 min 90 W/m 9,7 km/h (2 Bft) 100,00 %
30.11.2018 12:18 11,6 C 11,7 C 10,6 C 83 % 1009,0 hPa 0,0 l/m 0 min 0 min 75 W/m 16,1 km/h (3 Bft) 100,00 %
30.11.2018 12:20 11,6 C 11,7 C 10,6 C 83 % 1009,0 hPa 0,0 l/m 0 min 0 min 63 W/m 12,9 km/h (3 Bft) 100,00 %
30.11.2018 12:22 11,6 C 11,1 C 10,6 C 83 % 1009,0 hPa 0,0 l/m 0 min 0 min 59 W/m 12,9 km/h (3 Bft) 100,00 %
30.11.2018 12:24 11,6 C 11,1 C 10,6 C 83 % 1009,0 hPa 0,0 l/m 0 min 0 min 51 W/m 16,1 km/h (3 Bft) 100,00 %
30.11.2018 12:26 11,6 C 11,1 C 10,6 C 83 % 1009,0 hPa 0,0 l/m 0 min 0 min 48 W/m 16,1 km/h (3 Bft) 97,87 %
30.11.2018 12:28 11,6 C 11,1 C 10,6 C 83 % 1009,0 hPa 0,0 l/m 0 min 0 min 53 W/m 9,7 km/h (2 Bft) 100,00 %
30.11.2018 12:30 11,6 C 11,1 C 10,6 C 83 % 1009,0 hPa 0,0 l/m 0 min 0 min 55 W/m 19,3 km/h (3 Bft) 100,00 %
30.11.2018 12:32 11,6 C 11,1 C 10,6 C 83 % 1009,0 hPa 0,0 l/m 0 min 0 min 60 W/m 9,7 km/h (2 Bft) 97,87 %
30.11.2018 12:34 11,6 C 11,1 C 10,6 C 83 % 1008,9 hPa 0,0 l/m 0 min 0 min 77 W/m 16,1 km/h (3 Bft) 97,87 %
30.11.2018 12:36 11,6 C 11,1 C 10,6 C 83 % 1008,9 hPa 0,0 l/m 0 min 0 min 73 W/m 16,1 km/h (3 Bft) 96,55 %
30.11.2018 12:38 11,6 C 11,1 C 10,6 C 83 % 1008,9 hPa 0,0 l/m 0 min 0 min 54 W/m 16,1 km/h (3 Bft) 94,29 %
30.11.2018 12:40 11,6 C 11,1 C 10,6 C 83 % 1008,9 hPa 0,0 l/m 0 min 0 min 44 W/m 9,7 km/h (2 Bft) 95,83 %
30.11.2018 12:42 11,6 C 11,1 C 10,6 C 83 % 1008,9 hPa 0,0 l/m 0 min 0 min 44 W/m 19,3 km/h (3 Bft) 97,87 %
30.11.2018 12:44 11,6 C 11,1 C 10,6 C 83 % 1008,9 hPa 0,0 l/m 0 min 0 min 46 W/m 16,1 km/h (3 Bft) 95,74 %
30.11.2018 12:46 11,6 C 11,1 C 10,6 C 83 % 1008,9 hPa 0,0 l/m 0 min 0 min 65 W/m 22,5 km/h (4 Bft) 97,87 %
30.11.2018 12:48 11,6 C 11,1 C 10,6 C 83 % 1008,9 hPa 0,0 l/m 0 min 0 min 83 W/m 16,1 km/h (3 Bft) 95,74 %
30.11.2018 12:50 11,6 C 11,7 C 10,6 C 83 % 1008,9 hPa 0,0 l/m 0 min 0 min 96 W/m 29,0 km/h (5 Bft) 97,87 %
30.11.2018 12:52 11,6 C 11,7 C 10,6 C 82 % 1008,8 hPa 0,0 l/m 0 min 0 min 114 W/m 22,5 km/h (4 Bft) 95,65 %
30.11.2018 12:54 11,6 C 11,7 C 10,6 C 82 % 1008,9 hPa 0,0 l/m 0 min 0 min 125 W/m 16,1 km/h (3 Bft) 95,74 %
30.11.2018 12:56 11,6 C 12,2 C 10,6 C 82 % 1008,8 hPa 0,0 l/m 2 min 0 min 156 W/m 22,5 km/h (4 Bft) 97,87 %
30.11.2018 12:58 11,6 C 12,2 C 10,6 C 82 % 1008,8 hPa 0,0 l/m 2 min 0 min 166 W/m 19,3 km/h (3 Bft) 98,15 %
30.11.2018 13:00 11,6 C 12,8 C 10,6 C 82 % 1008,8 hPa 0,0 l/m 2 min 0 min 155 W/m 12,9 km/h (3 Bft) 95,74 %
30.11.2018 13:02 11,7 C 13,3 C 10,6 C 83 % 1008,8 hPa 0,0 l/m 2 min 0 min 171 W/m 16,1 km/h (3 Bft) 95,74 %
30.11.2018 13:04 11,7 C 12,8 C 10,6 C 82 % 1008,8 hPa 0,0 l/m 2 min 0 min 157 W/m 22,5 km/h (4 Bft) 95,74 %
30.11.2018 13:06 11,7 C 12,2 C 10,6 C 82 % 1008,7 hPa 0,0 l/m 0 min 0 min 141 W/m 22,5 km/h (4 Bft) 93,62 %
30.11.2018 13:08 11,7 C 12,2 C 10,6 C 82 % 1008,8 hPa 0,0 l/m 0 min 0 min 128 W/m 12,9 km/h (3 Bft) 91,30 %
30.11.2018 13:10 11,7 C 12,2 C 10,6 C 82 % 1008,8 hPa 0,0 l/m 0 min 0 min 134 W/m 12,9 km/h (3 Bft) 93,62 %
30.11.2018 13:12 11,7 C 12,2 C 10,6 C 82 % 1008,8 hPa 0,0 l/m 0 min 0 min 141 W/m 19,3 km/h (3 Bft) 93,62 %
30.11.2018 13:14 11,7 C 12,2 C 10,6 C 82 % 1008,8 hPa 0,0 l/m 2 min 0 min 149 W/m 19,3 km/h (3 Bft) 95,74 %
30.11.2018 13:16 11,8 C 12,2 C 10,6 C 81 % 1008,8 hPa 0,0 l/m 2 min 0 min 158 W/m 29,0 km/h (5 Bft) 93,62 %
30.11.2018 13:18 11,8 C 12,8 C 10,6 C 81 % 1008,8 hPa 0,0 l/m 2 min 0 min 177 W/m 16,1 km/h (3 Bft) 93,62 %
30.11.2018 13:20 11,8 C 12,8 C 10,6 C 81 % 1008,8 hPa 0,0 l/m 2 min 0 min 176 W/m 16,1 km/h (3 Bft) 93,48 %
30.11.2018 13:22 11,8 C 13,3 C 10,6 C 81 % 1008,7 hPa 0,0 l/m 2 min 0 min 177 W/m 16,1 km/h (3 Bft) 91,49 %
30.11.2018 13:24 11,8 C 13,3 C 10,6 C 81 % 1008,7 hPa 0,0 l/m 2 min 0 min 184 W/m 16,1 km/h (3 Bft) 95,74 %
30.11.2018 13:26 11,9 C 13,3 C 10,6 C 81 % 1008,7 hPa 0,0 l/m 2 min 0 min 197 W/m 22,5 km/h (4 Bft) 93,62 %
30.11.2018 13:28 11,9 C 13,3 C 10,6 C 81 % 1008,6 hPa 0,0 l/m 2 min 0 min 189 W/m 16,1 km/h (3 Bft) 95,74 %
30.11.2018 13:30 11,9 C 13,3 C 11,1 C 81 % 1008,7 hPa 0,0 l/m 2 min 0 min 172 W/m 12,9 km/h (3 Bft) 95,74 %
30.11.2018 13:32 11,9 C 12,8 C 10,6 C 81 % 1008,6 hPa 0,0 l/m 2 min 0 min 161 W/m 16,1 km/h (3 Bft) 95,65 %
30.11.2018 13:34 11,9 C 12,8 C 10,6 C 81 % 1008,5 hPa 0,0 l/m 2 min 0 min 159 W/m 19,3 km/h (3 Bft) 94,74 %
30.11.2018 13:36 12,0 C 12,8 C 10,6 C 81 % 1008,5 hPa 0,0 l/m 2 min 0 min 151 W/m 12,9 km/h (3 Bft) 94,92 %
30.11.2018 13:38 12,0 C 12,8 C 10,6 C 80 % 1008,6 hPa 0,0 l/m 2 min 0 min 140 W/m 19,3 km/h (3 Bft) 97,14 %
30.11.2018 13:40 12,0 C 12,2 C 10,6 C 80 % 1008,6 hPa 0,0 l/m 0 min 0 min 122 W/m 16,1 km/h (3 Bft) 95,74 %
30.11.2018 13:42 12,0 C 12,2 C 10,6 C 80 % 1008,6 hPa 0,0 l/m 0 min 0 min 125 W/m 16,1 km/h (3 Bft) 95,74 %
30.11.2018 13:44 12,0 C 12,2 C 10,6 C 80 % 1008,7 hPa 0,0 l/m 0 min 0 min 114 W/m 16,1 km/h (3 Bft) 93,62 %
30.11.2018 13:46 12,0 C 12,2 C 10,6 C 80 % 1008,6 hPa 0,0 l/m 0 min 0 min 100 W/m 19,3 km/h (3 Bft) 95,65 %
30.11.2018 13:48 11,9 C 11,7 C 10,6 C 79 % 1008,6 hPa 0,0 l/m 0 min 0 min 92 W/m 12,9 km/h (3 Bft) 91,49 %
30.11.2018 13:50 11,9 C 11,7 C 10,6 C 79 % 1008,6 hPa 0,0 l/m 0 min 0 min 94 W/m 12,9 km/h (3 Bft) 95,74 %
30.11.2018 13:52 11,9 C 11,7 C 10,6 C 79 % 1008,7 hPa 0,0 l/m 0 min 0 min 79 W/m 22,5 km/h (4 Bft) 93,62 %
30.11.2018 13:54 11,9 C 11,7 C 10,6 C 79 % 1008,7 hPa 0,0 l/m 0 min 0 min 61 W/m 9,7 km/h (2 Bft) 95,83 %
30.11.2018 13:56 11,9 C 11,7 C 10,6 C 79 % 1008,7 hPa 0,0 l/m 0 min 0 min 58 W/m 16,1 km/h (3 Bft) 97,87 %
30.11.2018 13:58 11,9 C 11,1 C 10,6 C 80 % 1008,8 hPa 0,0 l/m 0 min 0 min 58 W/m 12,9 km/h (3 Bft) 95,74 %
30.11.2018 14:00 11,9 C 11,1 C 10,6 C 80 % 1008,8 hPa 0,0 l/m 0 min 0 min 45 W/m 12,9 km/h (3 Bft) 100,00 %
30.11.2018 14:02 11,9 C 11,1 C 10,6 C 80 % 1008,8 hPa 0,0 l/m 0 min 0 min 47 W/m 22,5 km/h (4 Bft) 97,83 %
30.11.2018 14:04 11,8 C 11,1 C 10,6 C 80 % 1008,7 hPa 0,0 l/m 0 min 0 min 58 W/m 16,1 km/h (3 Bft) 100,00 %
30.11.2018 14:06 11,8 C 11,7 C 10,6 C 80 % 1008,6 hPa 0,0 l/m 0 min 0 min 79 W/m 22,5 km/h (4 Bft) 100,00 %
30.11.2018 14:08 11,8 C 11,7 C 10,6 C 80 % 1008,6 hPa 0,0 l/m 0 min 0 min 86 W/m 12,9 km/h (3 Bft) 97,87 %
30.11.2018 14:10 11,8 C 11,7 C 10,6 C 80 % 1008,6 hPa 0,0 l/m 0 min 0 min 82 W/m 19,3 km/h (3 Bft) 100,00 %
30.11.2018 14:12 11,8 C 11,7 C 10,6 C 80 % 1008,7 hPa 0,0 l/m 0 min 0 min 79 W/m 16,1 km/h (3 Bft) 100,00 %
30.11.2018 14:14 11,8 C 11,7 C 10,6 C 80 % 1008,8 hPa 0,0 l/m 0 min 0 min 76 W/m 16,1 km/h (3 Bft) 100,00 %
30.11.2018 14:16 11,8 C 11,7 C 10,6 C 80 % 1008,8 hPa 0,0 l/m 0 min 0 min 74 W/m 25,7 km/h (4 Bft) 97,87 %
30.11.2018 14:18 11,7 C 11,7 C 10,6 C 80 % 1008,8 hPa 0,0 l/m 0 min 0 min 71 W/m 22,5 km/h (4 Bft) 100,00 %
30.11.2018 14:20 11,7 C 11,7 C 10,6 C 80 % 1008,8 hPa 0,0 l/m 0 min 0 min 64 W/m 16,1 km/h (3 Bft) 100,00 %
30.11.2018 14:22 11,7 C 11,1 C 10,6 C 80 % 1008,8 hPa 0,0 l/m 0 min 0 min 50 W/m 25,7 km/h (4 Bft) 97,87 %
30.11.2018 14:24 11,7 C 11,7 C 10,6 C 80 % 1008,8 hPa 0,0 l/m 0 min 0 min 56 W/m 12,9 km/h (3 Bft) 100,00 %
30.11.2018 14:26 11,7 C 11,7 C 10,6 C 80 % 1008,8 hPa 0,0 l/m 0 min 0 min 63 W/m 16,1 km/h (3 Bft) 100,00 %
30.11.2018 14:28 11,7 C 11,7 C 10,6 C 80 % 1008,8 hPa 0,0 l/m 0 min 0 min 80 W/m 12,9 km/h (3 Bft) 100,00 %
30.11.2018 14:30 11,7 C 11,7 C 10,6 C 80 % 1008,6 hPa 0,0 l/m 0 min 0 min 97 W/m 16,1 km/h (3 Bft) 100,00 %
30.11.2018 14:32 11,7 C 11,7 C 10,6 C 80 % 1008,7 hPa 0,0 l/m 0 min 0 min 92 W/m 19,3 km/h (3 Bft) 100,00 %
30.11.2018 14:34 11,7 C 11,7 C 10,6 C 80 % 1008,6 hPa 0,0 l/m 0 min 0 min 86 W/m 9,7 km/h (2 Bft) 100,00 %
30.11.2018 14:36 11,7 C 11,7 C 10,6 C 80 % 1008,6 hPa 0,0 l/m 0 min 0 min 83 W/m 19,3 km/h (3 Bft) 97,87 %
30.11.2018 14:38 11,7 C 11,7 C 10,6 C 80 % 1008,6 hPa 0,0 l/m 0 min 0 min 80 W/m 19,3 km/h (3 Bft) 100,00 %
30.11.2018 14:40 11,7 C 11,7 C 10,6 C 80 % 1008,5 hPa 0,0 l/m 0 min 0 min 76 W/m 12,9 km/h (3 Bft) 97,87 %
30.11.2018 14:42 11,7 C 11,7 C 10,6 C 80 % 1008,6 hPa 0,0 l/m 0 min 0 min 77 W/m 12,9 km/h (3 Bft) 97,83 %
30.11.2018 14:44 11,7 C 11,7 C 10,6 C 80 % 1008,6 hPa 0,0 l/m 0 min 0 min 79 W/m 12,9 km/h (3 Bft) 100,00 %
30.11.2018 14:46 11,7 C 11,7 C 10,6 C 80 % 1008,6 hPa 0,0 l/m 0 min 0 min 80 W/m 12,9 km/h (3 Bft) 100,00 %
30.11.2018 14:48 11,7 C 11,7 C 10,6 C 80 % 1008,7 hPa 0,0 l/m 0 min 0 min 86 W/m 9,7 km/h (2 Bft) 100,00 %
30.11.2018 14:50 11,6 C 11,7 C 10,6 C 80 % 1008,7 hPa 0,0 l/m 0 min 0 min 82 W/m 19,3 km/h (3 Bft) 100,00 %
30.11.2018 14:52 11,6 C 11,7 C 10,6 C 80 % 1008,7 hPa 0,0 l/m 0 min 0 min 77 W/m 12,9 km/h (3 Bft) 100,00 %
30.11.2018 14:54 11,6 C 11,1 C 10,6 C 80 % 1008,7 hPa 0,0 l/m 0 min 0 min 66 W/m 12,9 km/h (3 Bft) 100,00 %
30.11.2018 14:56 11,6 C 11,1 C 10,6 C 80 % 1008,7 hPa 0,0 l/m 0 min 0 min 60 W/m 22,5 km/h (4 Bft) 100,00 %
30.11.2018 14:58 11,6 C 11,1 C 10,0 C 80 % 1008,6 hPa 0,0 l/m 0 min 0 min 57 W/m 9,7 km/h (2 Bft) 100,00 %
30.11.2018 15:00 11,6 C 11,1 C 10,0 C 80 % 1008,6 hPa 0,0 l/m 0 min 0 min 54 W/m 19,3 km/h (3 Bft) 100,00 %
30.11.2018 15:02 11,6 C 11,1 C 10,6 C 80 % 1008,6 hPa 0,0 l/m 0 min 0 min 54 W/m 16,1 km/h (3 Bft) 100,00 %
30.11.2018 15:04 11,6 C 11,1 C 10,6 C 80 % 1008,7 hPa 0,0 l/m 0 min 0 min 55 W/m 12,9 km/h (3 Bft) 97,87 %
30.11.2018 15:06 11,6 C 11,1 C 10,6 C 80 % 1008,7 hPa 0,0 l/m 0 min 0 min 57 W/m 9,7 km/h (2 Bft) 98,28 %
30.11.2018 15:08 11,6 C 11,1 C 10,6 C 80 % 1008,7 hPa 0,0 l/m 0 min 0 min 52 W/m 16,1 km/h (3 Bft) 97,14 %
30.11.2018 15:10 11,6 C 11,1 C 10,6 C 80 % 1008,7 hPa 0,0 l/m 0 min 0 min 57 W/m 16,1 km/h (3 Bft) 97,87 %
30.11.2018 15:12 11,6 C 11,7 C 10,6 C 80 % 1008,7 hPa 0,0 l/m 0 min 0 min 71 W/m 16,1 km/h (3 Bft) 95,74 %
30.11.2018 15:14 11,6 C 11,7 C 10,6 C 80 % 1008,7 hPa 0,0 l/m 2 min 0 min 88 W/m 19,3 km/h (3 Bft) 97,87 %
30.11.2018 15:16 11,6 C 11,7 C 10,6 C 80 % 1008,7 hPa 0,0 l/m 2 min 0 min 79 W/m 16,1 km/h (3 Bft) 95,74 %
30.11.2018 15:18 11,6 C 11,7 C 10,6 C 80 % 1008,7 hPa 0,0 l/m 0 min 0 min 64 W/m 16,1 km/h (3 Bft) 97,87 %
30.11.2018 15:20 11,6 C 11,1 C 10,6 C 80 % 1008,7 hPa 0,0 l/m 0 min 0 min 49 W/m 9,7 km/h (2 Bft) 97,83 %
30.11.2018 15:22 11,6 C 11,1 C 10,6 C 80 % 1008,7 hPa 0,0 l/m 0 min 0 min 45 W/m 16,1 km/h (3 Bft) 97,92 %
30.11.2018 15:24 11,6 C 11,1 C 10,0 C 80 % 1008,7 hPa 0,0 l/m 0 min 0 min 50 W/m 12,9 km/h (3 Bft) 97,83 %
30.11.2018 15:26 11,6 C 11,1 C 10,0 C 80 % 1008,7 hPa 0,0 l/m 0 min 0 min 57 W/m 19,3 km/h (3 Bft) 97,87 %
30.11.2018 15:28 11,6 C 11,1 C 10,0 C 80 % 1008,7 hPa 0,0 l/m 0 min 0 min 57 W/m 16,1 km/h (3 Bft) 97,87 %
30.11.2018 15:30 11,6 C 11,1 C 10,0 C 80 % 1008,8 hPa 0,0 l/m 2 min 0 min 59 W/m 12,9 km/h (3 Bft) 93,62 %
30.11.2018 15:32 11,6 C 11,1 C 10,0 C 81 % 1008,9 hPa 0,0 l/m 2 min 0 min 58 W/m 12,9 km/h (3 Bft) 97,87 %
30.11.2018 15:34 11,6 C 11,1 C 10,0 C 81 % 1008,8 hPa 0,0 l/m 2 min 0 min 54 W/m 12,9 km/h (3 Bft) 97,87 %
30.11.2018 15:36 11,6 C 11,1 C 10,0 C 81 % 1008,8 hPa 0,0 l/m 2 min 0 min 56 W/m 9,7 km/h (2 Bft) 97,83 %
30.11.2018 15:38 11,6 C 11,1 C 10,0 C 81 % 1008,7 hPa 0,0 l/m 2 min 0 min 51 W/m 9,7 km/h (2 Bft) 97,87 %
30.11.2018 15:40 11,5 C 11,1 C 10,0 C 81 % 1008,8 hPa 0,0 l/m 0 min 0 min 42 W/m 9,7 km/h (2 Bft) 97,87 %
30.11.2018 15:42 11,5 C 11,1 C 10,0 C 81 % 1008,8 hPa 0,0 l/m 0 min 0 min 40 W/m 12,9 km/h (3 Bft) 95,74 %
30.11.2018 15:44 11,5 C 11,1 C 10,0 C 81 % 1008,8 hPa 0,0 l/m 2 min 0 min 42 W/m 12,9 km/h (3 Bft) 97,87 %
30.11.2018 15:46 11,5 C 11,1 C 10,0 C 81 % 1008,9 hPa 0,0 l/m 2 min 0 min 40 W/m 12,9 km/h (3 Bft) 96,36 %
30.11.2018 15:48 11,5 C 11,1 C 10,0 C 81 % 1008,9 hPa 0,0 l/m 0 min 0 min 37 W/m 19,3 km/h (3 Bft) 97,87 %
30.11.2018 15:50 11,5 C 11,1 C 10,0 C 81 % 1009,0 hPa 0,0 l/m 0 min 0 min 33 W/m 12,9 km/h (3 Bft) 93,62 %
30.11.2018 15:52 11,5 C 11,1 C 10,0 C 81 % 1009,0 hPa 0,0 l/m 0 min 0 min 33 W/m 12,9 km/h (3 Bft) 97,83 %
30.11.2018 15:54 11,4 C 11,1 C 10,0 C 81 % 1009,0 hPa 0,0 l/m 2 min 0 min 32 W/m 12,9 km/h (3 Bft) 100,00 %
30.11.2018 15:56 11,4 C 11,1 C 10,0 C 81 % 1009,0 hPa 0,0 l/m 2 min 0 min 32 W/m 16,1 km/h (3 Bft) 100,00 %
30.11.2018 15:58 11,4 C 11,1 C 10,0 C 81 % 1009,1 hPa 0,0 l/m 2 min 0 min 33 W/m 12,9 km/h (3 Bft) 95,74 %
30.11.2018 16:00 11,4 C 11,1 C 10,0 C 81 % 1009,1 hPa 0,0 l/m 2 min 0 min 35 W/m 9,7 km/h (2 Bft) 95,74 %
30.11.2018 16:02 11,4 C 11,1 C 10,0 C 81 % 1009,1 hPa 0,0 l/m 2 min 0 min 35 W/m 19,3 km/h (3 Bft) 100,00 %
30.11.2018 16:04 11,4 C 11,1 C 10,0 C 81 % 1009,1 hPa 0,0 l/m 2 min 0 min 32 W/m 12,9 km/h (3 Bft) 100,00 %
30.11.2018 16:06 11,4 C 11,1 C 10,0 C 81 % 1009,0 hPa 0,0 l/m 2 min 0 min 28 W/m 16,1 km/h (3 Bft) 93,62 %
30.11.2018 16:08 11,4 C 10,6 C 10,0 C 81 % 1009,0 hPa 0,0 l/m 2 min 0 min 26 W/m 16,1 km/h (3 Bft) 97,87 %
30.11.2018 16:10 11,4 C 10,6 C 10,0 C 81 % 1009,1 hPa 0,0 l/m 2 min 0 min 22 W/m 6,4 km/h (2 Bft) 97,87 %
30.11.2018 16:12 11,4 C 10,6 C 10,0 C 81 % 1009,1 hPa 0,0 l/m 0 min 0 min 19 W/m 12,9 km/h (3 Bft) 97,37 %
30.11.2018 16:14 11,3 C 10,6 C 10,0 C 81 % 1009,1 hPa 0,0 l/m 0 min 0 min 17 W/m 19,3 km/h (3 Bft) 97,87 %
30.11.2018 16:16 11,3 C 10,6 C 10,0 C 81 % 1009,1 hPa 0,0 l/m 0 min 0 min 13 W/m 12,9 km/h (3 Bft) 93,62 %
30.11.2018 16:18 11,3 C 10,6 C 9,4 C 82 % 1009,1 hPa 0,0 l/m 0 min 0 min 11 W/m 12,9 km/h (3 Bft) 97,87 %
30.11.2018 16:20 11,3 C 10,6 C 9,4 C 82 % 1009,1 hPa 0,0 l/m 0 min 0 min 10 W/m 19,3 km/h (3 Bft) 93,62 %
30.11.2018 16:22 11,2 C 10,0 C 9,4 C 82 % 1009,2 hPa 0,0 l/m 0 min 0 min 8 W/m 12,9 km/h (3 Bft) 93,48 %
30.11.2018 16:24 11,2 C 10,0 C 9,4 C 82 % 1009,2 hPa 0,0 l/m 0 min 0 min 7 W/m 9,7 km/h (2 Bft) 93,62 %
30.11.2018 16:26 11,2 C 10,0 C 9,4 C 82 % 1009,2 hPa 0,0 l/m 0 min 0 min 6 W/m 12,9 km/h (3 Bft) 93,62 %
30.11.2018 16:28 11,2 C 10,0 C 9,4 C 82 % 1009,1 hPa 0,0 l/m 0 min 0 min 5 W/m 9,7 km/h (2 Bft) 95,74 %
30.11.2018 16:30 11,1 C 10,0 C 9,4 C 82 % 1009,1 hPa 0,0 l/m 0 min 0 min 5 W/m 9,7 km/h (2 Bft) 96,23 %
30.11.2018 16:32 11,1 C 10,0 C 8,9 C 82 % 1009,2 hPa 0,0 l/m 0 min 0 min 0 W/m 6,4 km/h (2 Bft) 95,74 %
30.11.2018 16:34 11,1 C 9,4 C 8,9 C 82 % 1009,2 hPa 0,0 l/m 0 min 0 min 0 W/m 9,7 km/h (2 Bft) 93,62 %
30.11.2018 16:36 11,0 C 10,0 C 8,9 C 82 % 1009,3 hPa 0,0 l/m 0 min 0 min 0 W/m 9,7 km/h (2 Bft) 95,74 %
30.11.2018 16:38 10,9 C 9,4 C 8,9 C 82 % 1009,3 hPa 0,0 l/m 0 min 0 min 0 W/m 9,7 km/h (2 Bft) 95,74 %
30.11.2018 16:40 10,9 C 9,4 C 8,9 C 82 % 1009,2 hPa 0,0 l/m 0 min 0 min 0 W/m 6,4 km/h (2 Bft) 95,74 %
30.11.2018 16:42 10,9 C 9,4 C 8,9 C 82 % 1009,3 hPa 0,0 l/m 0 min 0 min 0 W/m 9,7 km/h (2 Bft) 95,74 %
30.11.2018 16:44 10,8 C 9,4 C 8,9 C 83 % 1009,3 hPa 0,0 l/m 0 min 0 min 0 W/m 9,7 km/h (2 Bft) 95,74 %
30.11.2018 16:46 10,8 C 9,4 C 8,9 C 83 % 1009,4 hPa 0,0 l/m 0 min 0 min 0 W/m 9,7 km/h (2 Bft) 93,62 %
30.11.2018 16:48 10,8 C 9,4 C 8,9 C 83 % 1009,4 hPa 0,0 l/m 0 min 0 min 0 W/m 6,4 km/h (2 Bft) 95,74 %
30.11.2018 16:50 10,7 C 9,4 C 8,9 C 83 % 1009,4 hPa 0,0 l/m 0 min 0 min 0 W/m 6,4 km/h (2 Bft) 94,74 %
30.11.2018 16:52 10,7 C 9,4 C 8,9 C 83 % 1009,4 hPa 0,0 l/m 0 min 0 min 0 W/m 9,7 km/h (2 Bft) 95,74 %
30.11.2018 16:54 10,7 C 9,4 C 8,9 C 83 % 1009,3 hPa 0,0 l/m 0 min 0 min 0 W/m 9,7 km/h (2 Bft) 95,83 %
30.11.2018 16:56 10,7 C 9,4 C 8,9 C 83 % 1009,4 hPa 0,0 l/m 0 min 0 min 0 W/m 9,7 km/h (2 Bft) 93,62 %
30.11.2018 16:58 10,6 C 9,4 C 8,9 C 84 % 1009,4 hPa 0,0 l/m 0 min 0 min 0 W/m 6,4 km/h (2 Bft) 95,65 %
30.11.2018 17:00 10,6 C 9,4 C 8,9 C 83 % 1009,4 hPa 0,0 l/m 0 min 0 min 0 W/m 6,4 km/h (2 Bft) 98,18 %
30.11.2018 17:02 10,6 C 9,4 C 8,9 C 84 % 1009,4 hPa 0,0 l/m 0 min 0 min 0 W/m 6,4 km/h (2 Bft) 97,83 %
30.11.2018 17:04 10,6 C 9,4 C 8,9 C 84 % 1009,3 hPa 0,0 l/m 0 min 0 min 0 W/m 9,7 km/h (2 Bft) 89,36 %
30.11.2018 17:06 10,5 C 9,4 C 8,9 C 84 % 1009,3 hPa 0,0 l/m 0 min 0 min 0 W/m 6,4 km/h (2 Bft) 96,00 %
30.11.2018 17:08 10,5 C 9,4 C 8,9 C 84 % 1009,3 hPa 0,0 l/m 0 min 0 min 0 W/m 6,4 km/h (2 Bft) 100,00 %
30.11.2018 17:10 10,5 C 9,4 C 8,9 C 84 % 1009,3 hPa 0,0 l/m 0 min 0 min 0 W/m 9,7 km/h (2 Bft) 97,87 %
30.11.2018 17:12 10,4 C 9,4 C 8,9 C 84 % 1009,4 hPa 0,0 l/m 0 min 0 min 0 W/m 12,9 km/h (3 Bft) 97,87 %
30.11.2018 17:14 10,4 C 9,4 C 8,9 C 84 % 1009,4 hPa 0,0 l/m 0 min 0 min 0 W/m 6,4 km/h (2 Bft) 95,74 %
30.11.2018 17:16 10,4 C 9,4 C 8,9 C 84 % 1009,4 hPa 0,0 l/m 0 min 0 min 0 W/m 12,9 km/h (3 Bft) 97,83 %
30.11.2018 17:18 10,4 C 9,4 C 8,9 C 85 % 1009,4 hPa 0,0 l/m 0 min 0 min 0 W/m 9,7 km/h (2 Bft) 100,00 %
30.11.2018 17:20 10,4 C 9,4 C 8,9 C 85 % 1009,5 hPa 0,0 l/m 0 min 0 min 0 W/m 6,4 km/h (2 Bft) 100,00 %
30.11.2018 17:22 10,4 C 9,4 C 8,9 C 85 % 1009,5 hPa 0,0 l/m 0 min 0 min 0 W/m 9,7 km/h (2 Bft) 97,87 %
30.11.2018 17:24 10,4 C 9,4 C 8,9 C 85 % 1009,5 hPa 0,0 l/m 0 min 0 min 0 W/m 9,7 km/h (2 Bft) 100,00 %
30.11.2018 17:26 10,3 C 9,4 C 8,9 C 85 % 1009,5 hPa 0,0 l/m 0 min 0 min 0 W/m 9,7 km/h (2 Bft) 100,00 %
30.11.2018 17:28 10,3 C 9,4 C 8,9 C 85 % 1009,5 hPa 0,0 l/m 0 min 0 min 0 W/m 6,4 km/h (2 Bft) 100,00 %
30.11.2018 17:30 10,3 C 9,4 C 8,9 C 85 % 1009,5 hPa 0,0 l/m 0 min 0 min 0 W/m 9,7 km/h (2 Bft) 100,00 %
30.11.2018 17:32 10,3 C 9,4 C 8,9 C 85 % 1009,5 hPa 0,0 l/m 0 min 0 min 0 W/m 9,7 km/h (2 Bft) 97,87 %
30.11.2018 17:34 10,3 C 9,4 C 8,9 C 85 % 1009,5 hPa 0,0 l/m 0 min 0 min 0 W/m 16,1 km/h (3 Bft) 100,00 %
30.11.2018 17:36 10,3 C 9,4 C 8,9 C 85 % 1009,5 hPa 0,0 l/m 0 min 0 min 0 W/m 9,7 km/h (2 Bft) 97,87 %
30.11.2018 17:38 10,2 C 9,4 C 8,9 C 85 % 1009,5 hPa 0,0 l/m 0 min 0 min 0 W/m 9,7 km/h (2 Bft) 100,00 %
30.11.2018 17:40 10,2 C 8,9 C 8,3 C 85 % 1009,4 hPa 0,0 l/m 0 min 0 min 0 W/m 12,9 km/h (3 Bft) 100,00 %
30.11.2018 17:42 10,2 C 8,9 C 8,3 C 85 % 1009,4 hPa 0,0 l/m 0 min 0 min 0 W/m 9,7 km/h (2 Bft) 97,87 %
30.11.2018 17:44 10,2 C 8,9 C 8,3 C 85 % 1009,4 hPa 0,0 l/m 0 min 0 min 0 W/m 12,9 km/h (3 Bft) 100,00 %
30.11.2018 17:46 10,1 C 8,9 C 8,3 C 85 % 1009,4 hPa 0,0 l/m 0 min 0 min 0 W/m 12,9 km/h (3 Bft) 100,00 %
30.11.2018 17:48 10,1 C 8,9 C 8,3 C 85 % 1009,5 hPa 0,0 l/m 0 min 0 min 0 W/m 9,7 km/h (2 Bft) 97,87 %
30.11.2018 17:50 10,1 C 8,9 C 8,3 C 85 % 1009,5 hPa 0,0 l/m 0 min 0 min 0 W/m 6,4 km/h (2 Bft) 95,74 %
30.11.2018 17:52 10,0 C 8,9 C 8,3 C 85 % 1009,5 hPa 0,0 l/m 0 min 0 min 0 W/m 9,7 km/h (2 Bft) 97,87 %
30.11.2018 17:54 10,0 C 8,9 C 8,3 C 85 % 1009,5 hPa 0,0 l/m 0 min 0 min 0 W/m 6,4 km/h (2 Bft) 97,87 %
30.11.2018 17:56 9,9 C 8,3 C 7,8 C 86 % 1009,6 hPa 0,0 l/m 0 min 0 min 0 W/m 6,4 km/h (2 Bft) 97,83 %
30.11.2018 17:58 9,9 C 8,3 C 7,8 C 86 % 1009,7 hPa 0,0 l/m 0 min 0 min 0 W/m 6,4 km/h (2 Bft) 97,87 %
30.11.2018 18:00 9,9 C 8,3 C 7,8 C 86 % 1009,8 hPa 0,0 l/m 0 min 0 min 0 W/m 3,2 km/h (1 Bft) 97,87 %
30.11.2018 18:02 9,9 C 8,3 C 7,8 C 86 % 1009,7 hPa 0,0 l/m 0 min 0 min 0 W/m 9,7 km/h (2 Bft) 95,74 %
30.11.2018 18:04 9,8 C 8,3 C 7,8 C 86 % 1009,7 hPa 0,0 l/m 0 min 0 min 0 W/m 6,4 km/h (2 Bft) 97,87 %
30.11.2018 18:08 9,7 C 8,3 C 7,8 C 86 % 1009,7 hPa 0,0 l/m 0 min 0 min 0 W/m 9,7 km/h (2 Bft) 96,08 %
30.11.2018 18:10 9,7 C 8,3 C 7,8 C 86 % 1009,7 hPa 0,0 l/m 0 min 0 min 0 W/m 6,4 km/h (2 Bft) 97,87 %
30.11.2018 18:12 9,7 C 8,3 C 7,8 C 86 % 1009,7 hPa 0,0 l/m 0 min 0 min 0 W/m 9,7 km/h (2 Bft) 95,65 %
30.11.2018 18:14 9,6 C 8,3 C 7,8 C 86 % 1009,7 hPa 0,0 l/m 0 min 0 min 0 W/m 12,9 km/h (3 Bft) 97,87 %
30.11.2018 18:16 9,6 C 8,3 C 7,8 C 86 % 1009,7 hPa 0,0 l/m 0 min 0 min 0 W/m 12,9 km/h (3 Bft) 97,87 %
30.11.2018 18:18 9,6 C 8,3 C 7,8 C 87 % 1009,7 hPa 0,0 l/m 0 min 0 min 0 W/m 9,7 km/h (2 Bft) 97,87 %
30.11.2018 18:20 9,5 C 8,3 C 7,8 C 87 % 1009,7 hPa 0,0 l/m 0 min 0 min 0 W/m 12,9 km/h (3 Bft) 95,74 %
30.11.2018 18:22 9,4 C 8,3 C 7,8 C 87 % 1009,7 hPa 0,0 l/m 0 min 0 min 0 W/m 16,1 km/h (3 Bft) 97,87 %
30.11.2018 18:24 9,4 C 8,3 C 7,8 C 87 % 1009,8 hPa 0,0 l/m 0 min 0 min 0 W/m 12,9 km/h (3 Bft) 95,65 %
30.11.2018 18:26 9,4 C 8,3 C 7,8 C 87 % 1009,7 hPa 0,0 l/m 0 min 0 min 0 W/m 6,4 km/h (2 Bft) 97,87 %
30.11.2018 18:28 9,4 C 8,3 C 8,3 C 87 % 1009,7 hPa 0,0 l/m 0 min 0 min 0 W/m 12,9 km/h (3 Bft) 97,87 %
30.11.2018 18:30 9,4 C 8,9 C 8,3 C 87 % 1009,7 hPa 0,0 l/m 0 min 0 min 0 W/m 9,7 km/h (2 Bft) 97,87 %
30.11.2018 18:32 9,4 C 8,9 C 8,3 C 88 % 1009,7 hPa 0,0 l/m 0 min 0 min 0 W/m 12,9 km/h (3 Bft) 94,74 %
30.11.2018 18:34 9,3 C 8,3 C 8,3 C 87 % 1009,7 hPa 0,0 l/m 0 min 0 min 0 W/m 6,4 km/h (2 Bft) 95,74 %
30.11.2018 18:36 9,3 C 8,3 C 8,3 C 87 % 1009,8 hPa 0,0 l/m 0 min 0 min 0 W/m 9,7 km/h (2 Bft) 95,74 %
30.11.2018 18:38 9,3 C 8,3 C 8,3 C 88 % 1009,8 hPa 0,0 l/m 0 min 0 min 0 W/m 12,9 km/h (3 Bft) 97,87 %
30.11.2018 18:40 9,3 C 8,3 C 8,3 C 88 % 1009,9 hPa 0,0 l/m 0 min 0 min 0 W/m 12,9 km/h (3 Bft) 95,74 %
30.11.2018 18:42 9,3 C 8,3 C 7,8 C 88 % 1009,8 hPa 0,0 l/m 0 min 0 min 0 W/m 9,7 km/h (2 Bft) 100,00 %
30.11.2018 18:44 9,3 C 8,3 C 7,8 C 88 % 1009,9 hPa 0,0 l/m 0 min 0 min 0 W/m 9,7 km/h (2 Bft) 95,65 %
30.11.2018 18:46 9,3 C 8,3 C 7,8 C 88 % 1009,8 hPa 0,0 l/m 0 min 0 min 0 W/m 12,9 km/h (3 Bft) 97,87 %
30.11.2018 18:48 9,3 C 8,3 C 7,8 C 88 % 1009,8 hPa 0,0 l/m 0 min 0 min 0 W/m 9,7 km/h (2 Bft) 100,00 %
30.11.2018 18:50 9,2 C 8,3 C 7,8 C 88 % 1009,8 hPa 0,0 l/m 0 min 0 min 0 W/m 9,7 km/h (2 Bft) 95,74 %
30.11.2018 18:52 9,2 C 8,3 C 7,8 C 88 % 1009,8 hPa 0,0 l/m 0 min 0 min 0 W/m 9,7 km/h (2 Bft) 97,87 %
30.11.2018 18:54 9,2 C 8,3 C 7,8 C 88 % 1009,8 hPa 0,0 l/m 0 min 0 min 0 W/m 9,7 km/h (2 Bft) 97,87 %
30.11.2018 18:56 9,2 C 8,3 C 7,8 C 88 % 1009,9 hPa 0,0 l/m 0 min 0 min 0 W/m 9,7 km/h (2 Bft) 97,87 %
30.11.2018 18:58 9,2 C 8,3 C 7,8 C 88 % 1009,9 hPa 0,0 l/m 0 min 0 min 0 W/m 9,7 km/h (2 Bft) 97,83 %
30.11.2018 19:00 9,2 C 8,3 C 7,8 C 88 % 1009,9 hPa 0,0 l/m 0 min 0 min 0 W/m 12,9 km/h (3 Bft) 97,87 %
30.11.2018 19:02 9,2 C 8,3 C 7,8 C 88 % 1009,9 hPa 0,0 l/m 0 min 0 min 0 W/m 9,7 km/h (2 Bft) 97,87 %
30.11.2018 19:04 9,1 C 7,8 C 7,8 C 88 % 1010,0 hPa 0,0 l/m 0 min 0 min 0 W/m 12,9 km/h (3 Bft) 97,87 %
30.11.2018 19:06 9,1 C 7,8 C 7,8 C 88 % 1010,1 hPa 0,0 l/m 0 min 0 min 0 W/m 9,7 km/h (2 Bft) 97,87 %
30.11.2018 19:08 9,1 C 7,8 C 7,2 C 88 % 1010,1 hPa 0,0 l/m 0 min 0 min 0 W/m 12,9 km/h (3 Bft) 97,37 %
30.11.2018 19:10 9,1 C 7,8 C 7,2 C 88 % 1010,2 hPa 0,0 l/m 0 min 0 min 0 W/m 9,7 km/h (2 Bft) 97,87 %
30.11.2018 19:12 9,0 C 7,8 C 7,2 C 88 % 1010,2 hPa 0,0 l/m 0 min 0 min 0 W/m 3,2 km/h (1 Bft) 97,87 %
30.11.2018 19:14 9,0 C 7,8 C 7,2 C 88 % 1010,2 hPa 0,0 l/m 0 min 0 min 0 W/m 6,4 km/h (2 Bft) 97,87 %
30.11.2018 19:16 8,9 C 7,8 C 7,2 C 88 % 1010,2 hPa 0,0 l/m 0 min 0 min 0 W/m 9,7 km/h (2 Bft) 95,74 %
30.11.2018 19:18 8,9 C 7,8 C 7,2 C 88 % 1010,2 hPa 0,0 l/m 0 min 0 min 0 W/m 9,7 km/h (2 Bft) 97,83 %
30.11.2018 19:20 8,9 C 7,8 C 7,2 C 88 % 1010,2 hPa 0,0 l/m 0 min 0 min 0 W/m 12,9 km/h (3 Bft) 97,87 %
30.11.2018 19:22 8,9 C 7,8 C 7,2 C 89 % 1010,2 hPa 0,0 l/m 0 min 0 min 0 W/m 6,4 km/h (2 Bft) 97,87 %
30.11.2018 19:24 8,8 C 7,8 C 7,2 C 89 % 1010,3 hPa 0,0 l/m 0 min 0 min 0 W/m 9,7 km/h (2 Bft) 95,74 %
30.11.2018 19:26 8,8 C 7,8 C 7,2 C 89 % 1010,3 hPa 0,0 l/m 0 min 0 min 0 W/m 6,4 km/h (2 Bft) 98,18 %
30.11.2018 19:28 8,8 C 7,8 C 7,2 C 89 % 1010,3 hPa 0,0 l/m 0 min 0 min 0 W/m 9,7 km/h (2 Bft) 94,74 %
30.11.2018 19:30 8,7 C 7,8 C 7,2 C 89 % 1010,2 hPa 0,0 l/m 0 min 0 min 0 W/m 6,4 km/h (2 Bft) 97,87 %
30.11.2018 19:32 8,7 C 7,8 C 7,2 C 89 % 1010,3 hPa 0,0 l/m 0 min 0 min 0 W/m 9,7 km/h (2 Bft) 97,87 %
30.11.2018 19:34 8,7 C 7,2 C 7,2 C 89 % 1010,3 hPa 0,0 l/m 0 min 0 min 0 W/m 9,7 km/h (2 Bft) 97,87 %
30.11.2018 19:36 8,7 C 7,2 C 7,2 C 89 % 1010,4 hPa 0,0 l/m 0 min 0 min 0 W/m 6,4 km/h (2 Bft) 100,00 %
30.11.2018 19:38 8,6 C 7,2 C 7,2 C 89 % 1010,3 hPa 0,0 l/m 0 min 0 min 0 W/m 9,7 km/h (2 Bft) 100,00 %
30.11.2018 19:40 8,6 C 7,2 C 6,7 C 89 % 1010,4 hPa 0,0 l/m 0 min 0 min 0 W/m 6,4 km/h (2 Bft) 100,00 %
30.11.2018 19:42 8,6 C 7,2 C 6,7 C 89 % 1010,4 hPa 0,0 l/m 0 min 0 min 0 W/m 6,4 km/h (2 Bft) 100,00 %
30.11.2018 19:44 8,5 C 7,2 C 6,7 C 89 % 1010,4 hPa 0,0 l/m 0 min 0 min 0 W/m 9,7 km/h (2 Bft) 100,00 %
30.11.2018 19:46 8,5 C 7,2 C 6,7 C 89 % 1010,4 hPa 0,0 l/m 0 min 0 min 0 W/m 6,4 km/h (2 Bft) 100,00 %
30.11.2018 19:48 8,4 C 7,2 C 6,7 C 89 % 1010,5 hPa 0,0 l/m 0 min 0 min 0 W/m 6,4 km/h (2 Bft) 100,00 %
30.11.2018 19:50 8,4 C 7,2 C 6,7 C 89 % 1010,4 hPa 0,0 l/m 0 min 0 min 0 W/m 12,9 km/h (3 Bft) 100,00 %
30.11.2018 19:52 8,4 C 7,2 C 6,7 C 89 % 1010,4 hPa 0,0 l/m 0 min 0 min 0 W/m 9,7 km/h (2 Bft) 100,00 %
30.11.2018 19:54 8,3 C 7,2 C 6,7 C 89 % 1010,5 hPa 0,0 l/m 0 min 0 min 0 W/m 6,4 km/h (2 Bft) 100,00 %
30.11.2018 19:56 8,3 C 7,2 C 6,7 C 90 % 1010,5 hPa 0,0 l/m 0 min 0 min 0 W/m 6,4 km/h (2 Bft) 100,00 %
30.11.2018 19:58 8,3 C 7,2 C 6,7 C 90 % 1010,5 hPa 0,0 l/m 0 min 0 min 0 W/m 9,7 km/h (2 Bft) 100,00 %
30.11.2018 20:00 8,2 C 7,2 C 6,7 C 90 % 1010,5 hPa 0,0 l/m 0 min 0 min 0 W/m 6,4 km/h (2 Bft) 100,00 %
30.11.2018 20:02 8,2 C 7,2 C 6,7 C 90 % 1010,4 hPa 0,0 l/m 0 min 0 min 0 W/m 6,4 km/h (2 Bft) 97,87 %
30.11.2018 20:04 8,2 C 7,2 C 6,7 C 90 % 1010,5 hPa 0,0 l/m 0 min 0 min 0 W/m 6,4 km/h (2 Bft) 97,87 %
30.11.2018 20:06 8,2 C 7,2 C 6,7 C 90 % 1010,5 hPa 0,0 l/m 0 min 0 min 0 W/m 9,7 km/h (2 Bft) 100,00 %
30.11.2018 20:08 8,1 C 7,2 C 6,7 C 90 % 1010,6 hPa 0,0 l/m 0 min 0 min 0 W/m 9,7 km/h (2 Bft) 97,14 %
30.11.2018 20:10 8,1 C 7,2 C 6,7 C 90 % 1010,6 hPa 0,0 l/m 0 min 0 min 0 W/m 6,4 km/h (2 Bft) 97,87 %
30.11.2018 20:12 8,1 C 7,2 C 6,7 C 90 % 1010,6 hPa 0,0 l/m 0 min 0 min 0 W/m 6,4 km/h (2 Bft) 97,87 %
30.11.2018 20:14 8,1 C 7,2 C 6,7 C 91 % 1010,6 hPa 0,0 l/m 0 min 0 min 0 W/m 6,4 km/h (2 Bft) 97,87 %
30.11.2018 20:16 8,1 C 7,2 C 6,7 C 91 % 1010,6 hPa 0,0 l/m 0 min 0 min 0 W/m 9,7 km/h (2 Bft) 97,83 %
30.11.2018 20:18 8,0 C 7,2 C 6,7 C 91 % 1010,7 hPa 0,0 l/m 0 min 0 min 0 W/m 9,7 km/h (2 Bft) 97,87 %
30.11.2018 20:20 8,0 C 7,2 C 6,7 C 91 % 1010,7 hPa 0,0 l/m 0 min 0 min 0 W/m 6,4 km/h (2 Bft) 95,74 %
30.11.2018 20:22 8,0 C 7,2 C 6,7 C 91 % 1010,6 hPa 0,0 l/m 0 min 0 min 0 W/m 12,9 km/h (3 Bft) 97,87 %
30.11.2018 20:24 8,0 C 7,2 C 6,7 C 91 % 1010,7 hPa 0,0 l/m 0 min 0 min 0 W/m 9,7 km/h (2 Bft) 97,87 %
30.11.2018 20:26 8,0 C 7,2 C 6,7 C 91 % 1010,7 hPa 0,0 l/m 0 min 0 min 0 W/m 6,4 km/h (2 Bft) 97,87 %
30.11.2018 20:28 8,0 C 7,2 C 6,7 C 91 % 1010,7 hPa 0,0 l/m 0 min 0 min 0 W/m 9,7 km/h (2 Bft) 95,65 %
30.11.2018 20:30 8,0 C 7,2 C 6,7 C 91 % 1010,7 hPa 0,0 l/m 0 min 0 min 0 W/m 12,9 km/h (3 Bft) 93,62 %
30.11.2018 20:32 8,0 C 7,2 C 6,7 C 92 % 1010,8 hPa 0,0 l/m 0 min 0 min 0 W/m 6,4 km/h (2 Bft) 97,87 %
30.11.2018 20:34 7,9 C 7,2 C 6,7 C 92 % 1010,8 hPa 0,0 l/m 0 min 0 min 0 W/m 12,9 km/h (3 Bft) 96,36 %
30.11.2018 20:36 7,9 C 7,2 C 6,7 C 92 % 1010,7 hPa 0,0 l/m 0 min 0 min 0 W/m 12,9 km/h (3 Bft) 97,37 %
30.11.2018 20:38 7,9 C 7,2 C 6,7 C 92 % 1010,7 hPa 0,0 l/m 0 min 0 min 0 W/m 9,7 km/h (2 Bft) 97,92 %
30.11.2018 20:40 7,9 C 7,2 C 6,7 C 92 % 1010,7 hPa 0,0 l/m 0 min 0 min 0 W/m 9,7 km/h (2 Bft) 97,83 %
30.11.2018 20:42 7,9 C 7,2 C 6,7 C 92 % 1010,8 hPa 0,0 l/m 0 min 0 min 0 W/m 12,9 km/h (3 Bft) 97,87 %
30.11.2018 20:44 7,9 C 7,2 C 6,7 C 92 % 1010,8 hPa 0,0 l/m 0 min 0 min 0 W/m 12,9 km/h (3 Bft) 93,62 %
30.11.2018 20:46 7,9 C 7,2 C 6,7 C 92 % 1010,9 hPa 0,0 l/m 0 min 0 min 0 W/m 16,1 km/h (3 Bft) 95,74 %
30.11.2018 20:48 7,9 C 7,8 C 6,7 C 92 % 1010,8 hPa 0,0 l/m 0 min 0 min 0 W/m 12,9 km/h (3 Bft) 95,74 %
30.11.2018 20:50 7,9 C 7,2 C 6,7 C 92 % 1010,9 hPa 0,0 l/m 0 min 0 min 0 W/m 12,9 km/h (3 Bft) 95,74 %
30.11.2018 20:52 8,0 C 7,2 C 6,7 C 92 % 1010,9 hPa 0,0 l/m 0 min 0 min 0 W/m 12,9 km/h (3 Bft) 95,65 %
30.11.2018 20:54 8,0 C 7,2 C 6,7 C 92 % 1010,9 hPa 0,0 l/m 0 min 0 min 0 W/m 9,7 km/h (2 Bft) 95,74 %
30.11.2018 20:56 8,0 C 7,2 C 6,7 C 92 % 1010,9 hPa 0,0 l/m 0 min 0 min 0 W/m 12,9 km/h (3 Bft) 95,74 %
30.11.2018 20:58 8,0 C 7,2 C 6,7 C 92 % 1010,9 hPa 0,0 l/m 0 min 0 min 0 W/m 9,7 km/h (2 Bft) 94,55 %
30.11.2018 21:00 8,0 C 7,2 C 6,7 C 92 % 1011,0 hPa 0,0 l/m 0 min 0 min 0 W/m 9,7 km/h (2 Bft) 92,11 %
30.11.2018 21:02 8,0 C 7,2 C 6,7 C 92 % 1011,0 hPa 0,0 l/m 0 min 0 min 0 W/m 12,9 km/h (3 Bft) 93,62 %
30.11.2018 21:04 8,0 C 7,2 C 6,7 C 92 % 1011,0 hPa 0,0 l/m 0 min 0 min 0 W/m 9,7 km/h (2 Bft) 95,74 %
30.11.2018 21:06 8,0 C 7,2 C 6,7 C 92 % 1011,1 hPa 0,0 l/m 0 min 0 min 0 W/m 9,7 km/h (2 Bft) 93,62 %
30.11.2018 21:08 7,9 C 7,2 C 6,7 C 92 % 1011,1 hPa 0,0 l/m 0 min 0 min 0 W/m 9,7 km/h (2 Bft) 95,74 %
30.11.2018 21:10 8,0 C 7,2 C 6,7 C 92 % 1011,1 hPa 0,0 l/m 0 min 0 min 0 W/m 12,9 km/h (3 Bft) 93,62 %
30.11.2018 21:12 7,9 C 7,2 C 6,7 C 92 % 1011,1 hPa 0,0 l/m 0 min 0 min 0 W/m 9,7 km/h (2 Bft) 93,62 %
30.11.2018 21:14 7,9 C 7,2 C 6,7 C 92 % 1011,1 hPa 0,0 l/m 0 min 0 min 0 W/m 12,9 km/h (3 Bft) 97,83 %
30.11.2018 21:16 7,9 C 7,2 C 6,7 C 92 % 1011,2 hPa 0,0 l/m 0 min 0 min 0 W/m 9,7 km/h (2 Bft) 93,62 %
30.11.2018 21:18 7,9 C 7,2 C 6,7 C 92 % 1011,2 hPa 0,0 l/m 0 min 0 min 0 W/m 9,7 km/h (2 Bft) 91,49 %
30.11.2018 21:20 7,9 C 7,2 C 6,7 C 92 % 1011,1 hPa 0,0 l/m 0 min 0 min 0 W/m 9,7 km/h (2 Bft) 97,87 %
30.11.2018 21:22 7,9 C 7,2 C 6,7 C 92 % 1011,1 hPa 0,0 l/m 0 min 0 min 0 W/m 12,9 km/h (3 Bft) 91,49 %
30.11.2018 21:24 7,9 C 7,2 C 6,7 C 92 % 1011,1 hPa 0,0 l/m 0 min 0 min 0 W/m 9,7 km/h (2 Bft) 95,74 %
30.11.2018 21:26 7,9 C 6,7 C 6,7 C 92 % 1011,1 hPa 0,0 l/m 0 min 0 min 0 W/m 6,4 km/h (2 Bft) 93,48 %
30.11.2018 21:28 7,8 C 6,7 C 6,1 C 92 % 1011,1 hPa 0,0 l/m 0 min 0 min 0 W/m 6,4 km/h (2 Bft) 82,98 %
30.11.2018 21:30 7,8 C 6,7 C 6,1 C 92 % 1011,1 hPa 0,0 l/m 0 min 0 min 0 W/m 6,4 km/h (2 Bft) 95,74 %
30.11.2018 21:32 7,8 C 6,7 C 6,1 C 92 % 1011,1 hPa 0,0 l/m 0 min 0 min 0 W/m 9,7 km/h (2 Bft) 94,55 %
30.11.2018 21:34 7,8 C 6,7 C 6,1 C 92 % 1011,2 hPa 0,0 l/m 0 min 0 min 0 W/m 6,4 km/h (2 Bft) 93,62 %
30.11.2018 21:36 7,7 C 6,7 C 6,1 C 92 % 1011,2 hPa 0,0 l/m 0 min 0 min 0 W/m 6,4 km/h (2 Bft) 97,87 %
30.11.2018 21:38 7,7 C 6,7 C 6,1 C 92 % 1011,3 hPa 0,0 l/m 0 min 0 min 0 W/m 9,7 km/h (2 Bft) 100,00 %
30.11.2018 21:40 7,7 C 6,7 C 6,1 C 92 % 1011,3 hPa 0,0 l/m 0 min 0 min 0 W/m 9,7 km/h (2 Bft) 91,49 %
30.11.2018 21:42 7,7 C 6,7 C 6,1 C 92 % 1011,3 hPa 0,0 l/m 0 min 0 min 0 W/m 9,7 km/h (2 Bft) 97,87 %
30.11.2018 21:44 7,7 C 6,7 C 6,1 C 92 % 1011,3 hPa 0,0 l/m 0 min 0 min 0 W/m 9,7 km/h (2 Bft) 97,87 %
30.11.2018 21:46 7,7 C 6,7 C 6,1 C 92 % 1011,3 hPa 0,0 l/m 0 min 0 min 0 W/m 6,4 km/h (2 Bft) 97,87 %
30.11.2018 21:48 7,7 C 6,7 C 6,1 C 92 % 1011,4 hPa 0,0 l/m 0 min 0 min 0 W/m 6,4 km/h (2 Bft) 97,87 %
30.11.2018 21:50 7,6 C 6,7 C 6,1 C 92 % 1011,5 hPa 0,0 l/m 0 min 0 min 0 W/m 6,4 km/h (2 Bft) 93,48 %
30.11.2018 21:52 7,6 C 6,7 C 6,1 C 92 % 1011,5 hPa 0,0 l/m 0 min 0 min 0 W/m 6,4 km/h (2 Bft) 97,87 %
30.11.2018 21:54 7,6 C 6,7 C 6,1 C 92 % 1011,5 hPa 0,0 l/m 0 min 0 min 0 W/m 9,7 km/h (2 Bft) 97,87 %
30.11.2018 21:56 7,6 C 6,7 C 6,1 C 92 % 1011,4 hPa 0,0 l/m 0 min 0 min 0 W/m 3,2 km/h (1 Bft) 93,62 %
30.11.2018 21:58 7,6 C 6,7 C 6,1 C 92 % 1011,3 hPa 0,0 l/m 0 min 0 min 0 W/m 6,4 km/h (2 Bft) 97,87 %
30.11.2018 22:00 7,5 C 6,7 C 6,1 C 92 % 1011,3 hPa 0,0 l/m 0 min 0 min 0 W/m 6,4 km/h (2 Bft) 97,87 %
30.11.2018 22:02 7,5 C 6,7 C 6,1 C 92 % 1011,2 hPa 0,0 l/m 0 min 0 min 0 W/m 6,4 km/h (2 Bft) 95,65 %
30.11.2018 22:04 7,4 C 6,7 C 5,6 C 92 % 1011,3 hPa 0,0 l/m 0 min 0 min 0 W/m 6,4 km/h (2 Bft) 97,87 %
30.11.2018 22:06 7,4 C 6,1 C 5,6 C 92 % 1011,3 hPa 0,0 l/m 0 min 0 min 0 W/m 9,7 km/h (2 Bft) 100,00 %
30.11.2018 22:08 7,4 C 6,1 C 5,6 C 92 % 1011,3 hPa 0,0 l/m 0 min 0 min 0 W/m 6,4 km/h (2 Bft) 100,00 %
30.11.2018 22:10 7,4 C 6,1 C 5,6 C 92 % 1011,3 hPa 0,0 l/m 0 min 0 min 0 W/m 6,4 km/h (2 Bft) 97,87 %
30.11.2018 22:12 7,3 C 6,1 C 5,6 C 92 % 1011,3 hPa 0,0 l/m 0 min 0 min 0 W/m 6,4 km/h (2 Bft) 100,00 %
30.11.2018 22:14 7,3 C 6,1 C 5,6 C 92 % 1011,3 hPa 0,0 l/m 0 min 0 min 0 W/m 6,4 km/h (2 Bft) 100,00 %
30.11.2018 22:16 7,3 C 6,1 C 5,6 C 92 % 1011,4 hPa 0,0 l/m 0 min 0 min 0 W/m 9,7 km/h (2 Bft) 100,00 %
30.11.2018 22:18 7,3 C 6,1 C 5,6 C 92 % 1011,3 hPa 0,0 l/m 0 min 0 min 0 W/m 6,4 km/h (2 Bft) 100,00 %
30.11.2018 22:20 7,2 C 6,1 C 5,6 C 92 % 1011,4 hPa 0,0 l/m 0 min 0 min 0 W/m 9,7 km/h (2 Bft) 97,87 %
30.11.2018 22:22 7,2 C 6,1 C 5,6 C 92 % 1011,4 hPa 0,0 l/m 0 min 0 min 0 W/m 6,4 km/h (2 Bft) 95,74 %
30.11.2018 22:24 7,2 C 6,1 C 5,6 C 92 % 1011,4 hPa 0,0 l/m 0 min 0 min 0 W/m 3,2 km/h (1 Bft) 100,00 %
30.11.2018 22:26 7,2 C 6,1 C 5,6 C 92 % 1011,4 hPa 0,0 l/m 0 min 0 min 0 W/m 6,4 km/h (2 Bft) 100,00 %
30.11.2018 22:28 7,1 C 6,1 C 5,6 C 92 % 1011,4 hPa 0,0 l/m 0 min 0 min 0 W/m 3,2 km/h (1 Bft) 100,00 %
30.11.2018 22:30 7,1 C 6,1 C 5,6 C 92 % 1011,4 hPa 0,0 l/m 0 min 0 min 0 W/m 6,4 km/h (2 Bft) 100,00 %
30.11.2018 22:32 7,1 C 6,1 C 5,6 C 92 % 1011,5 hPa 0,0 l/m 0 min 0 min 0 W/m 6,4 km/h (2 Bft) 100,00 %
30.11.2018 22:34 7,0 C 6,1 C 5,6 C 92 % 1011,6 hPa 0,0 l/m 0 min 0 min 0 W/m 9,7 km/h (2 Bft) 100,00 %
30.11.2018 22:36 7,0 C 6,1 C 5,6 C 92 % 1011,5 hPa 0,0 l/m 0 min 0 min 0 W/m 6,4 km/h (2 Bft) 100,00 %
30.11.2018 22:38 7,0 C 6,1 C 5,6 C 92 % 1011,5 hPa 0,0 l/m 0 min 0 min 0 W/m 6,4 km/h (2 Bft) 100,00 %
30.11.2018 22:40 6,9 C 6,1 C 5,6 C 92 % 1011,5 hPa 0,0 l/m 0 min 0 min 0 W/m 6,4 km/h (2 Bft) 97,87 %
30.11.2018 22:42 6,9 C 6,1 C 5,6 C 92 % 1011,5 hPa 0,0 l/m 0 min 0 min 0 W/m 6,4 km/h (2 Bft) 100,00 %
30.11.2018 22:44 6,9 C 6,1 C 5,6 C 92 % 1011,5 hPa 0,0 l/m 0 min 0 min 0 W/m 6,4 km/h (2 Bft) 100,00 %
30.11.2018 22:46 6,8 C 5,6 C 5,6 C 92 % 1011,5 hPa 0,0 l/m 0 min 0 min 0 W/m 6,4 km/h (2 Bft) 100,00 %
30.11.2018 22:48 6,8 C 5,6 C 5,0 C 92 % 1011,5 hPa 0,0 l/m 0 min 0 min 0 W/m 6,4 km/h (2 Bft) 100,00 %
30.11.2018 22:50 6,8 C 5,6 C 5,0 C 93 % 1011,5 hPa 0,0 l/m 0 min 0 min 0 W/m 6,4 km/h (2 Bft) 100,00 %
30.11.2018 22:52 6,8 C 5,6 C 5,0 C 93 % 1011,5 hPa 0,0 l/m 0 min 0 min 0 W/m 6,4 km/h (2 Bft) 97,87 %
30.11.2018 22:54 6,7 C 5,6 C 5,0 C 93 % 1011,4 hPa 0,0 l/m 0 min 0 min 0 W/m 9,7 km/h (2 Bft) 100,00 %
30.11.2018 22:56 6,7 C 5,6 C 5,0 C 93 % 1011,4 hPa 0,0 l/m 0 min 0 min 0 W/m 3,2 km/h (1 Bft) 100,00 %
30.11.2018 22:58 6,7 C 5,6 C 5,0 C 93 % 1011,5 hPa 0,0 l/m 0 min 0 min 0 W/m 3,2 km/h (1 Bft) 100,00 %
30.11.2018 23:00 6,7 C 5,6 C 5,0 C 93 % 1011,6 hPa 0,0 l/m 0 min 0 min 0 W/m 6,4 km/h (2 Bft) 100,00 %
30.11.2018 23:02 6,7 C 5,6 C 5,0 C 93 % 1011,6 hPa 0,0 l/m 0 min 0 min 0 W/m 6,4 km/h (2 Bft) 100,00 %
30.11.2018 23:04 6,6 C 5,6 C 5,0 C 93 % 1011,6 hPa 0,0 l/m 0 min 0 min 0 W/m 3,2 km/h (1 Bft) 96,36 %
30.11.2018 23:06 6,6 C 5,6 C 5,0 C 93 % 1011,6 hPa 0,0 l/m 0 min 0 min 0 W/m 6,4 km/h (2 Bft) 97,87 %
30.11.2018 23:08 6,6 C 5,6 C 5,0 C 93 % 1011,6 hPa 0,0 l/m 0 min 0 min 0 W/m 3,2 km/h (1 Bft) 100,00 %
30.11.2018 23:10 6,6 C 6,1 C 5,6 C 93 % 1011,6 hPa 0,0 l/m 0 min 0 min 0 W/m 6,4 km/h (2 Bft) 97,87 %
30.11.2018 23:12 6,6 C 6,1 C 5,6 C 93 % 1011,7 hPa 0,0 l/m 0 min 0 min 0 W/m 6,4 km/h (2 Bft) 100,00 %
30.11.2018 23:14 6,6 C 6,1 C 5,6 C 93 % 1011,6 hPa 0,0 l/m 0 min 0 min 0 W/m 3,2 km/h (1 Bft) 100,00 %
30.11.2018 23:16 6,5 C 6,1 C 5,6 C 93 % 1011,6 hPa 0,0 l/m 0 min 0 min 0 W/m 6,4 km/h (2 Bft) 100,00 %
30.11.2018 23:18 6,5 C 6,1 C 5,6 C 93 % 1011,6 hPa 0,0 l/m 0 min 0 min 0 W/m 6,4 km/h (2 Bft) 100,00 %
30.11.2018 23:20 6,5 C 6,1 C 5,6 C 93 % 1011,5 hPa 0,0 l/m 0 min 0 min 0 W/m 9,7 km/h (2 Bft) 100,00 %
30.11.2018 23:22 6,5 C 6,1 C 5,6 C 93 % 1011,6 hPa 0,0 l/m 0 min 0 min 0 W/m 6,4 km/h (2 Bft) 97,87 %
30.11.2018 23:24 6,5 C 6,1 C 5,6 C 93 % 1011,7 hPa 0,0 l/m 0 min 0 min 0 W/m 6,4 km/h (2 Bft) 100,00 %
30.11.2018 23:26 6,5 C 6,1 C 5,6 C 94 % 1011,7 hPa 0,0 l/m 0 min 0 min 0 W/m 3,2 km/h (1 Bft) 100,00 %
30.11.2018 23:28 6,5 C 6,1 C 5,6 C 94 % 1011,6 hPa 0,0 l/m 0 min 0 min 0 W/m 6,4 km/h (2 Bft) 97,87 %
30.11.2018 23:30 6,5 C 6,1 C 5,6 C 94 % 1011,8 hPa 0,0 l/m 0 min 0 min 0 W/m 3,2 km/h (1 Bft) 100,00 %
30.11.2018 23:32 6,5 C 6,1 C 5,6 C 94 % 1011,8 hPa 0,0 l/m 0 min 0 min 0 W/m 9,7 km/h (2 Bft) 97,87 %
30.11.2018 23:34 6,5 C 6,1 C 5,6 C 94 % 1011,7 hPa 0,0 l/m 0 min 0 min 0 W/m 3,2 km/h (1 Bft) 100,00 %
30.11.2018 23:36 6,5 C 6,1 C 5,6 C 94 % 1011,7 hPa 0,0 l/m 0 min 0 min 0 W/m 6,4 km/h (2 Bft) 95,74 %
30.11.2018 23:38 6,6 C 6,1 C 5,6 C 94 % 1011,7 hPa 0,0 l/m 0 min 0 min 0 W/m 9,7 km/h (2 Bft) 95,74 %
30.11.2018 23:40 6,6 C 6,1 C 5,6 C 94 % 1011,6 hPa 0,0 l/m 0 min 0 min 0 W/m 12,9 km/h (3 Bft) 95,74 %
30.11.2018 23:42 6,6 C 6,1 C 5,6 C 94 % 1011,6 hPa 0,0 l/m 0 min 0 min 0 W/m 9,7 km/h (2 Bft) 95,74 %
30.11.2018 23:44 6,6 C 6,1 C 5,6 C 94 % 1011,7 hPa 0,0 l/m 0 min 0 min 0 W/m 9,7 km/h (2 Bft) 97,87 %
30.11.2018 23:46 6,6 C 6,1 C 5,6 C 94 % 1011,7 hPa 0,0 l/m 0 min 0 min 0 W/m 9,7 km/h (2 Bft) 96,36 %
30.11.2018 23:48 6,6 C 6,1 C 5,6 C 94 % 1011,7 hPa 0,0 l/m 0 min 0 min 0 W/m 6,4 km/h (2 Bft) 93,62 %
30.11.2018 23:50 6,6 C 6,1 C 5,6 C 94 % 1011,6 hPa 0,0 l/m 0 min 0 min 0 W/m 9,7 km/h (2 Bft) 93,48 %
30.11.2018 23:52 6,6 C 6,1 C 5,6 C 94 % 1011,6 hPa 0,0 l/m 0 min 0 min 0 W/m 9,7 km/h (2 Bft) 100,00 %
30.11.2018 23:54 6,6 C 6,1 C 5,6 C 94 % 1011,6 hPa 0,0 l/m 0 min 0 min 0 W/m 3,2 km/h (1 Bft) 91,49 %
30.11.2018 23:56 6,7 C 6,1 C 5,6 C 94 % 1011,6 hPa 0,0 l/m 0 min 0 min 0 W/m 3,2 km/h (1 Bft) 93,62 %
30.11.2018 23:58 6,7 C 6,1 C 5,6 C 94 % 1011,7 hPa 0,0 l/m 0 min 0 min 0 W/m 6,4 km/h (2 Bft) 94,55 %
_ Min-Zeit 23:16 22:46 22:48 13:48 01:34 - - - - 07:56 21:28
Minimum _ 6,5 C 5,6 C 5,0 C 79 % 1007,5 hPa - - - - 0,0 km/h (0 Bft) 82,98 %
_ Max-Zeit 13:36 13:02 13:30 09:36 23:30 00:00 09:44 00:00 13:26 12:10 01:22
Maximum _ 12,0 C 13,3 C 11,1 C 94 % 1011,8 hPa 0,0 l/m 2 min 0 min 197 W/m 29,0 km/h
S-SO (5 Bft)
100,00 %
Durchschnitt _ 9,1 C 8,7 C 7,8 C 88 % 1009,0 hPa #0,0 l/m #2:30 h #0 min. 85 W/m 11,7 km/h (2 Bft) 97,37 %
© 2018 W. Hausmann